<?xml version="1.0" encoding="UTF-8" standalone="no" ?>
<gpx xmlns="http://www.topografix.com/GPX/1/1" xmlns:xsi="http://www.w3.org/2001/XMLSchema-instance" xsi:schemaLocation="http://www.topografix.com/GPX/1/1 http://www.topografix.com/GPX/1/1/gpx.xsd" version="1.1" creator="VisuGPX - https://www.visugpx.com">
  <metadata>
    <name>Tour Du Marguareis</name>
  </metadata>
  <trk>
    <name><![CDATA[Tour Du Marguareis_1]]></name>
    <trkseg>
      <trkpt lat="44.15602" lon="7.56414">
        <ele>1795.6</ele>
        <time>2020-08-01T06:38:18Z</time>
      </trkpt>
      <trkpt lat="44.15609" lon="7.56384">
        <ele>1792.9</ele>
      </trkpt>
      <trkpt lat="44.15592" lon="7.56416">
        <ele>1798</ele>
      </trkpt>
      <trkpt lat="44.15564" lon="7.56448">
        <ele>1809.7</ele>
        <time>2020-08-01T06:50:14Z</time>
      </trkpt>
      <trkpt lat="44.15549" lon="7.56481">
        <ele>1811.9</ele>
      </trkpt>
      <trkpt lat="44.15515" lon="7.56585">
        <ele>1819.1</ele>
        <time>2020-08-01T06:51:13Z</time>
      </trkpt>
      <trkpt lat="44.15505" lon="7.56631">
        <ele>1809.8</ele>
      </trkpt>
      <trkpt lat="44.15482" lon="7.56703">
        <ele>1839.1</ele>
        <time>2020-08-01T06:52:12Z</time>
      </trkpt>
      <trkpt lat="44.15463" lon="7.56759">
        <ele>1827.9</ele>
      </trkpt>
      <trkpt lat="44.15445" lon="7.56775">
        <ele>1832.2</ele>
      </trkpt>
      <trkpt lat="44.15426" lon="7.5679">
        <ele>1832.7</ele>
        <time>2020-08-01T06:53:12Z</time>
      </trkpt>
      <trkpt lat="44.15383" lon="7.56815">
        <ele>1856.1</ele>
      </trkpt>
      <trkpt lat="44.15366" lon="7.56846">
        <ele>1847.2</ele>
      </trkpt>
      <trkpt lat="44.15349" lon="7.56884">
        <ele>1846.5</ele>
        <time>2020-08-01T06:54:11Z</time>
      </trkpt>
      <trkpt lat="44.15296" lon="7.56987">
        <ele>1862.9</ele>
        <time>2020-08-01T06:55:11Z</time>
      </trkpt>
      <trkpt lat="44.15238" lon="7.57093">
        <ele>1868.3</ele>
        <time>2020-08-01T06:56:11Z</time>
      </trkpt>
      <trkpt lat="44.15206" lon="7.57151">
        <ele>1871.9</ele>
      </trkpt>
      <trkpt lat="44.15185" lon="7.57204">
        <ele>1871.2</ele>
        <time>2020-08-01T06:57:10Z</time>
      </trkpt>
      <trkpt lat="44.1518" lon="7.57242">
        <ele>1874.8</ele>
      </trkpt>
      <trkpt lat="44.15184" lon="7.57268">
        <ele>1877.6</ele>
      </trkpt>
      <trkpt lat="44.15246" lon="7.57357">
        <ele>1887.8</ele>
      </trkpt>
      <trkpt lat="44.15328" lon="7.57446">
        <ele>1890.1</ele>
      </trkpt>
      <trkpt lat="44.15369" lon="7.57551">
        <ele>1882.8</ele>
      </trkpt>
      <trkpt lat="44.1538" lon="7.57596">
        <ele>1876.7</ele>
      </trkpt>
      <trkpt lat="44.1537" lon="7.57634">
        <ele>1876.4</ele>
      </trkpt>
      <trkpt lat="44.15342" lon="7.57674">
        <ele>1878.7</ele>
        <time>2020-08-01T07:04:08Z</time>
      </trkpt>
      <trkpt lat="44.15309" lon="7.57719">
        <ele>1886.1</ele>
      </trkpt>
      <trkpt lat="44.15287" lon="7.57743">
        <ele>1887.7</ele>
      </trkpt>
      <trkpt lat="44.15255" lon="7.578">
        <ele>1875.3</ele>
      </trkpt>
      <trkpt lat="44.15237" lon="7.57891">
        <ele>1876</ele>
      </trkpt>
      <trkpt lat="44.15242" lon="7.57991">
        <ele>1884.3</ele>
        <time>2020-08-01T07:05:07Z</time>
      </trkpt>
      <trkpt lat="44.15256" lon="7.58059">
        <ele>1882.8</ele>
      </trkpt>
      <trkpt lat="44.15292" lon="7.58127">
        <ele>1892.1</ele>
        <time>2020-08-01T07:06:06Z</time>
      </trkpt>
      <trkpt lat="44.15304" lon="7.58152">
        <ele>1891.6</ele>
      </trkpt>
      <trkpt lat="44.15314" lon="7.58189">
        <ele>1902.2</ele>
      </trkpt>
      <trkpt lat="44.15338" lon="7.58244">
        <ele>1890.1</ele>
      </trkpt>
      <trkpt lat="44.15338" lon="7.58268">
        <ele>1888</ele>
      </trkpt>
      <trkpt lat="44.15314" lon="7.58314">
        <ele>1912.9</ele>
        <time>2020-08-01T07:07:06Z</time>
      </trkpt>
      <trkpt lat="44.15301" lon="7.58377">
        <ele>1919.5</ele>
      </trkpt>
      <trkpt lat="44.15304" lon="7.58401">
        <ele>1916.5</ele>
      </trkpt>
      <trkpt lat="44.15295" lon="7.58464">
        <ele>1922.5</ele>
      </trkpt>
      <trkpt lat="44.15301" lon="7.58497">
        <ele>1919.5</ele>
      </trkpt>
      <trkpt lat="44.15314" lon="7.58529">
        <ele>1922.6</ele>
        <time>2020-08-01T07:08:08Z</time>
      </trkpt>
      <trkpt lat="44.15333" lon="7.58612">
        <ele>1935.7</ele>
      </trkpt>
      <trkpt lat="44.15353" lon="7.58666">
        <ele>1912.8</ele>
      </trkpt>
      <trkpt lat="44.15366" lon="7.58732">
        <ele>1919.1</ele>
        <time>2020-08-01T07:09:08Z</time>
      </trkpt>
      <trkpt lat="44.15404" lon="7.58903">
        <ele>1928</ele>
        <time>2020-08-01T07:10:07Z</time>
      </trkpt>
      <trkpt lat="44.15411" lon="7.58949">
        <ele>1936.6</ele>
        <time>2020-08-01T07:11:06Z</time>
      </trkpt>
      <trkpt lat="44.15418" lon="7.58977">
        <ele>1907.8</ele>
      </trkpt>
      <trkpt lat="44.15415" lon="7.59013">
        <ele>1937.5</ele>
      </trkpt>
      <trkpt lat="44.15429" lon="7.59041">
        <ele>1911.7</ele>
      </trkpt>
      <trkpt lat="44.15428" lon="7.59073">
        <ele>1918.9</ele>
      </trkpt>
      <trkpt lat="44.15433" lon="7.59082">
        <ele>1918.5</ele>
      </trkpt>
      <trkpt lat="44.15478" lon="7.59127">
        <ele>1917</ele>
      </trkpt>
      <trkpt lat="44.15495" lon="7.59182">
        <ele>1923.7</ele>
      </trkpt>
      <trkpt lat="44.15504" lon="7.59191">
        <ele>1920.4</ele>
      </trkpt>
      <trkpt lat="44.15553" lon="7.59174">
        <ele>1921.3</ele>
      </trkpt>
      <trkpt lat="44.1558" lon="7.59197">
        <ele>1924.5</ele>
      </trkpt>
      <trkpt lat="44.15601" lon="7.59192">
        <ele>1931.5</ele>
      </trkpt>
      <trkpt lat="44.15632" lon="7.59205">
        <ele>1938.1</ele>
      </trkpt>
      <trkpt lat="44.15661" lon="7.59183">
        <ele>1933.8</ele>
      </trkpt>
      <trkpt lat="44.15678" lon="7.59169">
        <ele>1939.6</ele>
      </trkpt>
      <trkpt lat="44.15708" lon="7.59161">
        <ele>1927.6</ele>
      </trkpt>
      <trkpt lat="44.15745" lon="7.59151">
        <ele>1937.6</ele>
        <time>2020-08-01T07:14:13Z</time>
      </trkpt>
      <trkpt lat="44.15811" lon="7.59108">
        <ele>1937.9</ele>
        <time>2020-08-01T07:15:13Z</time>
      </trkpt>
      <trkpt lat="44.15863" lon="7.59101">
        <ele>1948.6</ele>
      </trkpt>
      <trkpt lat="44.15908" lon="7.59073">
        <ele>1943.8</ele>
      </trkpt>
      <trkpt lat="44.15938" lon="7.59041">
        <ele>1939.6</ele>
      </trkpt>
      <trkpt lat="44.15983" lon="7.59067">
        <ele>1942.7</ele>
      </trkpt>
      <trkpt lat="44.15984" lon="7.59087">
        <ele>1947.2</ele>
      </trkpt>
      <trkpt lat="44.15976" lon="7.59105">
        <ele>1947.6</ele>
      </trkpt>
      <trkpt lat="44.15933" lon="7.59118">
        <ele>1951</ele>
      </trkpt>
      <trkpt lat="44.15916" lon="7.59117">
        <ele>1954.2</ele>
      </trkpt>
      <trkpt lat="44.1587" lon="7.59157">
        <ele>1956.2</ele>
      </trkpt>
      <trkpt lat="44.15801" lon="7.59263">
        <ele>1985.9</ele>
        <time>2020-08-01T07:21:12Z</time>
      </trkpt>
      <trkpt lat="44.15782" lon="7.59291">
        <ele>1990.3</ele>
      </trkpt>
      <trkpt lat="44.15774" lon="7.59315">
        <ele>1994.1</ele>
      </trkpt>
      <trkpt lat="44.15772" lon="7.59409">
        <ele>2001.5</ele>
      </trkpt>
      <trkpt lat="44.15743" lon="7.59449">
        <ele>2017.8</ele>
        <time>2020-08-01T07:23:10Z</time>
      </trkpt>
      <trkpt lat="44.15714" lon="7.59482">
        <ele>2020.9</ele>
        <time>2020-08-01T07:24:10Z</time>
      </trkpt>
      <trkpt lat="44.15692" lon="7.59506">
        <ele>2024.9</ele>
      </trkpt>
      <trkpt lat="44.15651" lon="7.59525">
        <ele>2032.2</ele>
        <time>2020-08-01T07:25:10Z</time>
      </trkpt>
      <trkpt lat="44.15629" lon="7.59533">
        <ele>2032.9</ele>
      </trkpt>
      <trkpt lat="44.15605" lon="7.59522">
        <ele>2033</ele>
      </trkpt>
      <trkpt lat="44.15599" lon="7.595">
        <ele>2029</ele>
      </trkpt>
      <trkpt lat="44.15589" lon="7.5951">
        <ele>2032.1</ele>
      </trkpt>
      <trkpt lat="44.1559" lon="7.59538">
        <ele>2034.1</ele>
      </trkpt>
      <trkpt lat="44.15569" lon="7.59589">
        <ele>2046.9</ele>
      </trkpt>
      <trkpt lat="44.15564" lon="7.5962">
        <ele>2052.2</ele>
      </trkpt>
      <trkpt lat="44.15582" lon="7.59647">
        <ele>2056.3</ele>
      </trkpt>
      <trkpt lat="44.15589" lon="7.59668">
        <ele>2060.3</ele>
      </trkpt>
      <trkpt lat="44.15588" lon="7.59695">
        <ele>2063.3</ele>
        <time>2020-08-01T07:28:08Z</time>
      </trkpt>
      <trkpt lat="44.15585" lon="7.59718">
        <ele>2068.6</ele>
      </trkpt>
      <trkpt lat="44.15593" lon="7.59724">
        <ele>2069.9</ele>
      </trkpt>
      <trkpt lat="44.15605" lon="7.5972">
        <ele>2066.7</ele>
      </trkpt>
      <trkpt lat="44.15621" lon="7.59734">
        <ele>2066.1</ele>
        <time>2020-08-01T07:29:08Z</time>
      </trkpt>
      <trkpt lat="44.15664" lon="7.59787">
        <ele>2090.5</ele>
        <time>2020-08-01T07:31:07Z</time>
      </trkpt>
      <trkpt lat="44.15691" lon="7.59818">
        <ele>2090.9</ele>
      </trkpt>
      <trkpt lat="44.15718" lon="7.59833">
        <ele>2088.6</ele>
      </trkpt>
      <trkpt lat="44.15747" lon="7.59832">
        <ele>2093.4</ele>
      </trkpt>
      <trkpt lat="44.15758" lon="7.59839">
        <ele>2104.6</ele>
      </trkpt>
      <trkpt lat="44.15732" lon="7.59851">
        <ele>2114.3</ele>
      </trkpt>
      <trkpt lat="44.15682" lon="7.59844">
        <ele>2118.7</ele>
        <time>2020-08-01T07:33:11Z</time>
      </trkpt>
      <trkpt lat="44.15634" lon="7.59814">
        <ele>2100.5</ele>
      </trkpt>
      <trkpt lat="44.15602" lon="7.59818">
        <ele>2106.2</ele>
      </trkpt>
      <trkpt lat="44.15584" lon="7.59836">
        <ele>2122.8</ele>
      </trkpt>
      <trkpt lat="44.15563" lon="7.59819">
        <ele>2117.6</ele>
        <time>2020-08-01T07:35:09Z</time>
      </trkpt>
      <trkpt lat="44.15547" lon="7.59795">
        <ele>2114.3</ele>
      </trkpt>
      <trkpt lat="44.15525" lon="7.59794">
        <ele>2116.6</ele>
      </trkpt>
      <trkpt lat="44.15511" lon="7.59758">
        <ele>2110.4</ele>
      </trkpt>
      <trkpt lat="44.15502" lon="7.59748">
        <ele>2104.7</ele>
      </trkpt>
      <trkpt lat="44.15498" lon="7.5976">
        <ele>2117.2</ele>
      </trkpt>
      <trkpt lat="44.15513" lon="7.59799">
        <ele>2119.3</ele>
      </trkpt>
      <trkpt lat="44.15538" lon="7.59822">
        <ele>2120.2</ele>
      </trkpt>
      <trkpt lat="44.1556" lon="7.5987">
        <ele>2133.7</ele>
      </trkpt>
      <trkpt lat="44.15552" lon="7.59887">
        <ele>2135.4</ele>
      </trkpt>
      <trkpt lat="44.15539" lon="7.59888">
        <ele>2135.7</ele>
      </trkpt>
      <trkpt lat="44.15527" lon="7.59899">
        <ele>2136.1</ele>
      </trkpt>
      <trkpt lat="44.15478" lon="7.59905">
        <ele>2139.2</ele>
      </trkpt>
      <trkpt lat="44.15454" lon="7.59919">
        <ele>2130.5</ele>
      </trkpt>
      <trkpt lat="44.15442" lon="7.59916">
        <ele>2139.3</ele>
      </trkpt>
      <trkpt lat="44.15428" lon="7.59898">
        <ele>2139.7</ele>
      </trkpt>
      <trkpt lat="44.15414" lon="7.59893">
        <ele>2147.2</ele>
      </trkpt>
      <trkpt lat="44.15398" lon="7.59912">
        <ele>2146.1</ele>
      </trkpt>
      <trkpt lat="44.15367" lon="7.59952">
        <ele>2134.8</ele>
      </trkpt>
      <trkpt lat="44.15351" lon="7.5996">
        <ele>2134.6</ele>
      </trkpt>
      <trkpt lat="44.15326" lon="7.59979">
        <ele>2142.6</ele>
        <time>2020-08-01T07:51:40Z</time>
      </trkpt>
      <trkpt lat="44.15306" lon="7.59999">
        <ele>2144.8</ele>
      </trkpt>
      <trkpt lat="44.15284" lon="7.60027">
        <ele>2133.6</ele>
      </trkpt>
      <trkpt lat="44.15264" lon="7.60043">
        <ele>2134.8</ele>
      </trkpt>
      <trkpt lat="44.15254" lon="7.60086">
        <ele>2132.7</ele>
      </trkpt>
      <trkpt lat="44.15231" lon="7.60118">
        <ele>2149.5</ele>
      </trkpt>
      <trkpt lat="44.15231" lon="7.60152">
        <ele>2141.9</ele>
      </trkpt>
      <trkpt lat="44.15221" lon="7.60217">
        <ele>2136.4</ele>
      </trkpt>
      <trkpt lat="44.15226" lon="7.60264">
        <ele>2124.7</ele>
      </trkpt>
      <trkpt lat="44.15201" lon="7.60358">
        <ele>2125.5</ele>
      </trkpt>
      <trkpt lat="44.15192" lon="7.60449">
        <ele>2115.9</ele>
      </trkpt>
      <trkpt lat="44.15175" lon="7.60527">
        <ele>2110.1</ele>
      </trkpt>
      <trkpt lat="44.15152" lon="7.6056">
        <ele>2131</ele>
      </trkpt>
      <trkpt lat="44.15146" lon="7.60602">
        <ele>2127.4</ele>
      </trkpt>
      <trkpt lat="44.15139" lon="7.6062">
        <ele>2130.4</ele>
      </trkpt>
      <trkpt lat="44.1515" lon="7.60677">
        <ele>2121.2</ele>
      </trkpt>
      <trkpt lat="44.15141" lon="7.60729">
        <ele>2124.6</ele>
      </trkpt>
      <trkpt lat="44.15146" lon="7.60771">
        <ele>2123.3</ele>
      </trkpt>
      <trkpt lat="44.15149" lon="7.60836">
        <ele>2125.9</ele>
      </trkpt>
      <trkpt lat="44.15161" lon="7.60914">
        <ele>2125.9</ele>
      </trkpt>
      <trkpt lat="44.15207" lon="7.60992">
        <ele>2108.9</ele>
      </trkpt>
      <trkpt lat="44.1523" lon="7.61074">
        <ele>2122.3</ele>
      </trkpt>
      <trkpt lat="44.15285" lon="7.61142">
        <ele>2115.7</ele>
      </trkpt>
      <trkpt lat="44.15354" lon="7.61186">
        <ele>2107.6</ele>
      </trkpt>
      <trkpt lat="44.15436" lon="7.61212">
        <ele>2090.9</ele>
        <time>2020-08-01T07:54:56Z</time>
      </trkpt>
      <trkpt lat="44.15469" lon="7.61245">
        <ele>2089.5</ele>
      </trkpt>
      <trkpt lat="44.15441" lon="7.61284">
        <ele>2096.3</ele>
      </trkpt>
      <trkpt lat="44.15416" lon="7.61322">
        <ele>2109.7</ele>
      </trkpt>
      <trkpt lat="44.15402" lon="7.61372">
        <ele>2099.4</ele>
      </trkpt>
      <trkpt lat="44.15374" lon="7.614">
        <ele>2099.2</ele>
      </trkpt>
      <trkpt lat="44.1536" lon="7.61423">
        <ele>2084.9</ele>
      </trkpt>
      <trkpt lat="44.1533" lon="7.61419">
        <ele>2101.5</ele>
      </trkpt>
      <trkpt lat="44.15314" lon="7.61434">
        <ele>2097.1</ele>
      </trkpt>
      <trkpt lat="44.15315" lon="7.61453">
        <ele>2093.9</ele>
      </trkpt>
      <trkpt lat="44.15291" lon="7.61488">
        <ele>2090.2</ele>
      </trkpt>
      <trkpt lat="44.1527" lon="7.61487">
        <ele>2091.2</ele>
      </trkpt>
      <trkpt lat="44.15254" lon="7.61461">
        <ele>2095.2</ele>
      </trkpt>
      <trkpt lat="44.15236" lon="7.61442">
        <ele>2105.1</ele>
      </trkpt>
      <trkpt lat="44.15211" lon="7.61442">
        <ele>2105.6</ele>
      </trkpt>
      <trkpt lat="44.15182" lon="7.61475">
        <ele>2103.4</ele>
      </trkpt>
      <trkpt lat="44.15177" lon="7.61507">
        <ele>2096.3</ele>
      </trkpt>
      <trkpt lat="44.15182" lon="7.61557">
        <ele>2090</ele>
      </trkpt>
      <trkpt lat="44.15175" lon="7.61568">
        <ele>2090.2</ele>
      </trkpt>
      <trkpt lat="44.1517" lon="7.61603">
        <ele>2084.8</ele>
      </trkpt>
      <trkpt lat="44.15151" lon="7.61613">
        <ele>2097.5</ele>
      </trkpt>
      <trkpt lat="44.15152" lon="7.61641">
        <ele>2095.4</ele>
      </trkpt>
      <trkpt lat="44.15147" lon="7.61677">
        <ele>2092.8</ele>
      </trkpt>
      <trkpt lat="44.15151" lon="7.6173">
        <ele>2092.6</ele>
      </trkpt>
      <trkpt lat="44.15164" lon="7.61773">
        <ele>2095.6</ele>
      </trkpt>
      <trkpt lat="44.152" lon="7.61834">
        <ele>2082.8</ele>
      </trkpt>
      <trkpt lat="44.15217" lon="7.61878">
        <ele>2083.2</ele>
      </trkpt>
      <trkpt lat="44.15235" lon="7.61901">
        <ele>2081.3</ele>
      </trkpt>
      <trkpt lat="44.15255" lon="7.61913">
        <ele>2072.2</ele>
      </trkpt>
      <trkpt lat="44.15335" lon="7.61941">
        <ele>2067.2</ele>
      </trkpt>
      <trkpt lat="44.15418" lon="7.61945">
        <ele>2047.8</ele>
      </trkpt>
      <trkpt lat="44.15437" lon="7.61958">
        <ele>2048.3</ele>
      </trkpt>
      <trkpt lat="44.15473" lon="7.62024">
        <ele>2060</ele>
        <time>2020-08-01T07:57:48Z</time>
      </trkpt>
      <trkpt lat="44.15522" lon="7.62139">
        <ele>2040</ele>
      </trkpt>
      <trkpt lat="44.15525" lon="7.62176">
        <ele>2050.9</ele>
      </trkpt>
      <trkpt lat="44.15552" lon="7.62214">
        <ele>2039.9</ele>
        <time>2020-08-01T07:58:47Z</time>
      </trkpt>
      <trkpt lat="44.15546" lon="7.62237">
        <ele>2042.5</ele>
      </trkpt>
      <trkpt lat="44.15526" lon="7.6224">
        <ele>2054.1</ele>
      </trkpt>
      <trkpt lat="44.15507" lon="7.6227">
        <ele>2063.8</ele>
      </trkpt>
      <trkpt lat="44.155" lon="7.62308">
        <ele>2091.2</ele>
      </trkpt>
      <trkpt lat="44.15498" lon="7.62346">
        <ele>2079.6</ele>
      </trkpt>
      <trkpt lat="44.1552" lon="7.62397">
        <ele>2062.2</ele>
      </trkpt>
      <trkpt lat="44.15549" lon="7.62437">
        <ele>2064.7</ele>
      </trkpt>
      <trkpt lat="44.15579" lon="7.62474">
        <ele>2070</ele>
      </trkpt>
      <trkpt lat="44.15609" lon="7.62498">
        <ele>2070.5</ele>
      </trkpt>
      <trkpt lat="44.15646" lon="7.62518">
        <ele>2080.8</ele>
      </trkpt>
      <trkpt lat="44.15665" lon="7.62516">
        <ele>2080</ele>
      </trkpt>
      <trkpt lat="44.15699" lon="7.62526">
        <ele>2090.6</ele>
      </trkpt>
      <trkpt lat="44.15716" lon="7.62518">
        <ele>2089.6</ele>
      </trkpt>
      <trkpt lat="44.1577" lon="7.62555">
        <ele>2098.9</ele>
      </trkpt>
      <trkpt lat="44.1583" lon="7.62613">
        <ele>2128.5</ele>
      </trkpt>
      <trkpt lat="44.15888" lon="7.62629">
        <ele>2128.9</ele>
      </trkpt>
      <trkpt lat="44.15925" lon="7.62634">
        <ele>2133.8</ele>
      </trkpt>
      <trkpt lat="44.15967" lon="7.62635">
        <ele>2137</ele>
      </trkpt>
      <trkpt lat="44.15995" lon="7.62629">
        <ele>2137.7</ele>
      </trkpt>
      <trkpt lat="44.16033" lon="7.62623">
        <ele>2149.2</ele>
      </trkpt>
      <trkpt lat="44.16053" lon="7.62629">
        <ele>2153.1</ele>
      </trkpt>
      <trkpt lat="44.16061" lon="7.62633">
        <ele>2155.2</ele>
      </trkpt>
      <trkpt lat="44.16069" lon="7.62605">
        <ele>2147</ele>
      </trkpt>
      <trkpt lat="44.16083" lon="7.62604">
        <ele>2155.5</ele>
      </trkpt>
      <trkpt lat="44.16099" lon="7.62587">
        <ele>2152.3</ele>
      </trkpt>
      <trkpt lat="44.16115" lon="7.62579">
        <ele>2127.6</ele>
      </trkpt>
      <trkpt lat="44.16131" lon="7.62579">
        <ele>2129.7</ele>
        <time>2020-08-01T08:12:55Z</time>
      </trkpt>
      <trkpt lat="44.16155" lon="7.62598">
        <ele>2163.3</ele>
      </trkpt>
      <trkpt lat="44.16179" lon="7.62611">
        <ele>2173.4</ele>
      </trkpt>
      <trkpt lat="44.16204" lon="7.62612">
        <ele>2175.1</ele>
      </trkpt>
      <trkpt lat="44.16226" lon="7.62583">
        <ele>2167.9</ele>
        <time>2020-08-01T08:18:01Z</time>
      </trkpt>
      <trkpt lat="44.16247" lon="7.62578">
        <ele>2147.5</ele>
      </trkpt>
      <trkpt lat="44.16279" lon="7.62592">
        <ele>2169.4</ele>
      </trkpt>
      <trkpt lat="44.16314" lon="7.6258">
        <ele>2141.1</ele>
      </trkpt>
      <trkpt lat="44.16344" lon="7.62561">
        <ele>2138.8</ele>
      </trkpt>
      <trkpt lat="44.16376" lon="7.62573">
        <ele>2137.3</ele>
      </trkpt>
      <trkpt lat="44.16414" lon="7.62582">
        <ele>2146</ele>
      </trkpt>
      <trkpt lat="44.16444" lon="7.62571">
        <ele>2132</ele>
      </trkpt>
      <trkpt lat="44.1647" lon="7.62552">
        <ele>2125.4</ele>
        <time>2020-08-01T08:26:19Z</time>
      </trkpt>
      <trkpt lat="44.16484" lon="7.62543">
        <ele>2124</ele>
      </trkpt>
      <trkpt lat="44.16503" lon="7.62545">
        <ele>2107.4</ele>
      </trkpt>
      <trkpt lat="44.16529" lon="7.62501">
        <ele>2106.4</ele>
      </trkpt>
      <trkpt lat="44.16545" lon="7.62477">
        <ele>2099.4</ele>
      </trkpt>
      <trkpt lat="44.16558" lon="7.62467">
        <ele>2097.6</ele>
      </trkpt>
      <trkpt lat="44.16594" lon="7.62461">
        <ele>2065.5</ele>
      </trkpt>
      <trkpt lat="44.16594" lon="7.62472">
        <ele>2066.7</ele>
      </trkpt>
      <trkpt lat="44.16579" lon="7.62481">
        <ele>2096.5</ele>
      </trkpt>
      <trkpt lat="44.16559" lon="7.62479">
        <ele>2098</ele>
      </trkpt>
      <trkpt lat="44.1654" lon="7.62502">
        <ele>2103</ele>
      </trkpt>
      <trkpt lat="44.16528" lon="7.62525">
        <ele>2105</ele>
      </trkpt>
      <trkpt lat="44.16523" lon="7.62547">
        <ele>2104</ele>
      </trkpt>
      <trkpt lat="44.16506" lon="7.62591">
        <ele>2106</ele>
      </trkpt>
      <trkpt lat="44.16423" lon="7.62735">
        <ele>2115.3</ele>
      </trkpt>
      <trkpt lat="44.16414" lon="7.62767">
        <ele>2129</ele>
      </trkpt>
      <trkpt lat="44.16401" lon="7.62783">
        <ele>2131.1</ele>
      </trkpt>
      <trkpt lat="44.16404" lon="7.62842">
        <ele>2107.5</ele>
      </trkpt>
      <trkpt lat="44.16394" lon="7.62858">
        <ele>2110.4</ele>
      </trkpt>
      <trkpt lat="44.1639" lon="7.62884">
        <ele>2109.3</ele>
      </trkpt>
      <trkpt lat="44.16384" lon="7.62904">
        <ele>2108</ele>
      </trkpt>
      <trkpt lat="44.16352" lon="7.62982">
        <ele>2091.6</ele>
        <time>2020-08-01T08:30:33Z</time>
      </trkpt>
      <trkpt lat="44.16361" lon="7.6311">
        <ele>2077.2</ele>
      </trkpt>
      <trkpt lat="44.16358" lon="7.63141">
        <ele>2077.3</ele>
      </trkpt>
      <trkpt lat="44.16365" lon="7.63154">
        <ele>2076.7</ele>
      </trkpt>
      <trkpt lat="44.16371" lon="7.63122">
        <ele>2076.3</ele>
      </trkpt>
      <trkpt lat="44.16383" lon="7.63097">
        <ele>2076.1</ele>
      </trkpt>
      <trkpt lat="44.16391" lon="7.63086">
        <ele>2075.8</ele>
      </trkpt>
      <trkpt lat="44.16401" lon="7.63082">
        <ele>2078.3</ele>
      </trkpt>
      <trkpt lat="44.16413" lon="7.63094">
        <ele>2075.1</ele>
      </trkpt>
      <trkpt lat="44.16417" lon="7.63113">
        <ele>2075.8</ele>
      </trkpt>
      <trkpt lat="44.16416" lon="7.63131">
        <ele>2073.1</ele>
      </trkpt>
      <trkpt lat="44.16428" lon="7.6315">
        <ele>2072.2</ele>
      </trkpt>
      <trkpt lat="44.16446" lon="7.63152">
        <ele>2074.7</ele>
      </trkpt>
      <trkpt lat="44.16463" lon="7.63137">
        <ele>2077.7</ele>
      </trkpt>
      <trkpt lat="44.16475" lon="7.63142">
        <ele>2078.5</ele>
      </trkpt>
      <trkpt lat="44.16482" lon="7.63144">
        <ele>2078.9</ele>
      </trkpt>
      <trkpt lat="44.16486" lon="7.6317">
        <ele>2075.6</ele>
      </trkpt>
      <trkpt lat="44.16498" lon="7.63241">
        <ele>2074.2</ele>
        <time>2020-08-01T08:32:28Z</time>
      </trkpt>
      <trkpt lat="44.16528" lon="7.63369">
        <ele>2090.2</ele>
      </trkpt>
      <trkpt lat="44.16527" lon="7.63441">
        <ele>2082.2</ele>
      </trkpt>
      <trkpt lat="44.16536" lon="7.63488">
        <ele>2081.3</ele>
      </trkpt>
      <trkpt lat="44.16549" lon="7.63509">
        <ele>2070.8</ele>
      </trkpt>
      <trkpt lat="44.16554" lon="7.63525">
        <ele>2069.4</ele>
      </trkpt>
      <trkpt lat="44.16587" lon="7.63549">
        <ele>2076.8</ele>
      </trkpt>
      <trkpt lat="44.16615" lon="7.63547">
        <ele>2077.3</ele>
      </trkpt>
      <trkpt lat="44.16643" lon="7.63523">
        <ele>2081.9</ele>
      </trkpt>
      <trkpt lat="44.16665" lon="7.63516">
        <ele>2086.1</ele>
      </trkpt>
      <trkpt lat="44.16678" lon="7.63516">
        <ele>2075.5</ele>
      </trkpt>
      <trkpt lat="44.16713" lon="7.6343">
        <ele>2090.7</ele>
      </trkpt>
      <trkpt lat="44.1673" lon="7.6337">
        <ele>2107.4</ele>
      </trkpt>
      <trkpt lat="44.16742" lon="7.63346">
        <ele>2105.1</ele>
      </trkpt>
      <trkpt lat="44.16746" lon="7.63318">
        <ele>2114.9</ele>
      </trkpt>
      <trkpt lat="44.16765" lon="7.63302">
        <ele>2112.3</ele>
      </trkpt>
      <trkpt lat="44.16796" lon="7.63319">
        <ele>2110</ele>
      </trkpt>
      <trkpt lat="44.1683" lon="7.63308">
        <ele>2109.7</ele>
      </trkpt>
      <trkpt lat="44.16862" lon="7.63313">
        <ele>2110.9</ele>
      </trkpt>
      <trkpt lat="44.16876" lon="7.63307">
        <ele>2112.5</ele>
      </trkpt>
      <trkpt lat="44.16894" lon="7.63291">
        <ele>2116.1</ele>
      </trkpt>
      <trkpt lat="44.16924" lon="7.63282">
        <ele>2125.5</ele>
      </trkpt>
      <trkpt lat="44.16949" lon="7.63288">
        <ele>2125.3</ele>
      </trkpt>
      <trkpt lat="44.16984" lon="7.63323">
        <ele>2121.8</ele>
      </trkpt>
      <trkpt lat="44.17009" lon="7.63349">
        <ele>2124.4</ele>
      </trkpt>
      <trkpt lat="44.17053" lon="7.63376">
        <ele>2133.7</ele>
      </trkpt>
      <trkpt lat="44.17082" lon="7.63389">
        <ele>2137.4</ele>
      </trkpt>
      <trkpt lat="44.17093" lon="7.63396">
        <ele>2164.2</ele>
      </trkpt>
      <trkpt lat="44.17104" lon="7.63413">
        <ele>2163.2</ele>
      </trkpt>
      <trkpt lat="44.17111" lon="7.63446">
        <ele>2147.6</ele>
        <time>2020-08-01T08:42:23Z</time>
      </trkpt>
      <trkpt lat="44.17121" lon="7.63487">
        <ele>2144.7</ele>
      </trkpt>
      <trkpt lat="44.17121" lon="7.63514">
        <ele>2127.7</ele>
      </trkpt>
      <trkpt lat="44.1712" lon="7.63529">
        <ele>2125.9</ele>
      </trkpt>
      <trkpt lat="44.17116" lon="7.63552">
        <ele>2121.2</ele>
      </trkpt>
      <trkpt lat="44.17122" lon="7.63566">
        <ele>2121.1</ele>
      </trkpt>
      <trkpt lat="44.17147" lon="7.63575">
        <ele>2128.9</ele>
        <time>2020-08-01T08:43:22Z</time>
      </trkpt>
      <trkpt lat="44.17159" lon="7.6357">
        <ele>2131.7</ele>
      </trkpt>
      <trkpt lat="44.17178" lon="7.63578">
        <ele>2148.5</ele>
      </trkpt>
      <trkpt lat="44.17212" lon="7.63593">
        <ele>2142.3</ele>
      </trkpt>
      <trkpt lat="44.17226" lon="7.63609">
        <ele>2143.1</ele>
      </trkpt>
      <trkpt lat="44.17236" lon="7.6364">
        <ele>2136.2</ele>
      </trkpt>
      <trkpt lat="44.17247" lon="7.63647">
        <ele>2135.3</ele>
      </trkpt>
      <trkpt lat="44.17266" lon="7.63652">
        <ele>2149.6</ele>
      </trkpt>
      <trkpt lat="44.17286" lon="7.63664">
        <ele>2154.5</ele>
      </trkpt>
      <trkpt lat="44.17304" lon="7.63667">
        <ele>2145.2</ele>
      </trkpt>
      <trkpt lat="44.17312" lon="7.63673">
        <ele>2147.3</ele>
      </trkpt>
      <trkpt lat="44.17344" lon="7.637">
        <ele>2158</ele>
        <time>2020-08-01T08:44:22Z</time>
      </trkpt>
      <trkpt lat="44.17355" lon="7.63714">
        <ele>2157.2</ele>
      </trkpt>
      <trkpt lat="44.17376" lon="7.63713">
        <ele>2160</ele>
      </trkpt>
      <trkpt lat="44.17383" lon="7.6373">
        <ele>2159.4</ele>
      </trkpt>
      <trkpt lat="44.17375" lon="7.63766">
        <ele>2152.3</ele>
      </trkpt>
      <trkpt lat="44.17377" lon="7.63794">
        <ele>2152.8</ele>
      </trkpt>
      <trkpt lat="44.17375" lon="7.63844">
        <ele>2156.5</ele>
        <time>2020-08-01T08:45:22Z</time>
      </trkpt>
      <trkpt lat="44.17359" lon="7.63858">
        <ele>2154.8</ele>
      </trkpt>
      <trkpt lat="44.17334" lon="7.6387">
        <ele>2153.8</ele>
      </trkpt>
      <trkpt lat="44.17308" lon="7.63886">
        <ele>2146.2</ele>
      </trkpt>
      <trkpt lat="44.17296" lon="7.63895">
        <ele>2146.3</ele>
      </trkpt>
      <trkpt lat="44.17267" lon="7.63919">
        <ele>2153.1</ele>
      </trkpt>
      <trkpt lat="44.17233" lon="7.63916">
        <ele>2144.5</ele>
      </trkpt>
      <trkpt lat="44.17219" lon="7.63904">
        <ele>2142.1</ele>
      </trkpt>
      <trkpt lat="44.17193" lon="7.6391">
        <ele>2142.5</ele>
      </trkpt>
      <trkpt lat="44.17166" lon="7.63888">
        <ele>2136.8</ele>
        <time>2020-08-01T08:46:35Z</time>
      </trkpt>
      <trkpt lat="44.17143" lon="7.63908">
        <ele>2138.5</ele>
      </trkpt>
      <trkpt lat="44.17124" lon="7.63914">
        <ele>2136.7</ele>
      </trkpt>
      <trkpt lat="44.17108" lon="7.63935">
        <ele>2148.8</ele>
      </trkpt>
      <trkpt lat="44.17046" lon="7.63945">
        <ele>2143.8</ele>
      </trkpt>
      <trkpt lat="44.17035" lon="7.63962">
        <ele>2145.1</ele>
      </trkpt>
      <trkpt lat="44.17042" lon="7.64004">
        <ele>2152.6</ele>
      </trkpt>
      <trkpt lat="44.17063" lon="7.64029">
        <ele>2152.9</ele>
        <time>2020-08-01T08:47:35Z</time>
      </trkpt>
      <trkpt lat="44.17084" lon="7.64037">
        <ele>2157.6</ele>
      </trkpt>
      <trkpt lat="44.17118" lon="7.64118">
        <ele>2155.2</ele>
      </trkpt>
      <trkpt lat="44.17159" lon="7.64176">
        <ele>2159</ele>
      </trkpt>
      <trkpt lat="44.17169" lon="7.64221">
        <ele>2172.6</ele>
        <time>2020-08-01T08:48:34Z</time>
      </trkpt>
      <trkpt lat="44.1718" lon="7.6425">
        <ele>2169</ele>
      </trkpt>
      <trkpt lat="44.17176" lon="7.64305">
        <ele>2172</ele>
      </trkpt>
      <trkpt lat="44.1719" lon="7.64349">
        <ele>2175.1</ele>
        <time>2020-08-01T08:49:34Z</time>
      </trkpt>
      <trkpt lat="44.17215" lon="7.64423">
        <ele>2188.6</ele>
        <time>2020-08-01T08:50:34Z</time>
      </trkpt>
      <trkpt lat="44.17222" lon="7.64444">
        <ele>2190</ele>
      </trkpt>
      <trkpt lat="44.17215" lon="7.64473">
        <ele>2191</ele>
      </trkpt>
      <trkpt lat="44.172" lon="7.64493">
        <ele>2189</ele>
      </trkpt>
      <trkpt lat="44.17209" lon="7.64526">
        <ele>2197.4</ele>
        <time>2020-08-01T08:51:33Z</time>
      </trkpt>
      <trkpt lat="44.17217" lon="7.64552">
        <ele>2199</ele>
      </trkpt>
      <trkpt lat="44.17229" lon="7.64567">
        <ele>2202</ele>
      </trkpt>
      <trkpt lat="44.17242" lon="7.64572">
        <ele>2204</ele>
      </trkpt>
      <trkpt lat="44.17246" lon="7.64587">
        <ele>2207</ele>
      </trkpt>
      <trkpt lat="44.17219" lon="7.64589">
        <ele>2205.1</ele>
        <time>2020-08-01T08:52:34Z</time>
      </trkpt>
      <trkpt lat="44.17211" lon="7.64604">
        <ele>2205</ele>
      </trkpt>
      <trkpt lat="44.17212" lon="7.64624">
        <ele>2205</ele>
      </trkpt>
      <trkpt lat="44.172" lon="7.64636">
        <ele>2205</ele>
      </trkpt>
      <trkpt lat="44.17189" lon="7.64638">
        <ele>2205.3</ele>
        <time>2020-08-01T08:53:38Z</time>
      </trkpt>
      <trkpt lat="44.17159" lon="7.64636">
        <ele>2199</ele>
      </trkpt>
      <trkpt lat="44.17125" lon="7.64641">
        <ele>2197</ele>
      </trkpt>
      <trkpt lat="44.17105" lon="7.64659">
        <ele>2197</ele>
      </trkpt>
      <trkpt lat="44.17103" lon="7.64684">
        <ele>2206</ele>
      </trkpt>
      <trkpt lat="44.17089" lon="7.64702">
        <ele>2208</ele>
      </trkpt>
      <trkpt lat="44.17086" lon="7.64721">
        <ele>2211</ele>
      </trkpt>
      <trkpt lat="44.17092" lon="7.64741">
        <ele>2213</ele>
      </trkpt>
      <trkpt lat="44.17091" lon="7.64765">
        <ele>2221</ele>
      </trkpt>
      <trkpt lat="44.17089" lon="7.6478">
        <ele>2225</ele>
      </trkpt>
      <trkpt lat="44.17077" lon="7.64791">
        <ele>2225.9</ele>
        <time>2020-08-01T08:54:56Z</time>
      </trkpt>
      <trkpt lat="44.17061" lon="7.64794">
        <ele>2227</ele>
      </trkpt>
      <trkpt lat="44.17033" lon="7.64793">
        <ele>2228</ele>
      </trkpt>
      <trkpt lat="44.17012" lon="7.64759">
        <ele>2227</ele>
      </trkpt>
      <trkpt lat="44.17" lon="7.64751">
        <ele>2226</ele>
      </trkpt>
      <trkpt lat="44.16997" lon="7.6476">
        <ele>2233.1</ele>
        <time>2020-08-01T08:55:59Z</time>
      </trkpt>
      <trkpt lat="44.17009" lon="7.64786">
        <ele>2229</ele>
      </trkpt>
      <trkpt lat="44.17011" lon="7.64815">
        <ele>2232.6</ele>
        <time>2020-08-01T08:56:58Z</time>
      </trkpt>
      <trkpt lat="44.17019" lon="7.64824">
        <ele>2232.8</ele>
        <time>2020-08-01T09:03:00Z</time>
      </trkpt>
      <trkpt lat="44.17014" lon="7.64841">
        <ele>2237.8</ele>
        <time>2020-08-01T09:04:03Z</time>
      </trkpt>
      <trkpt lat="44.17007" lon="7.6491">
        <ele>2235.1</ele>
      </trkpt>
      <trkpt lat="44.1701" lon="7.64947">
        <ele>2233</ele>
      </trkpt>
      <trkpt lat="44.17017" lon="7.64954">
        <ele>2233</ele>
      </trkpt>
      <trkpt lat="44.17017" lon="7.64977">
        <ele>2231</ele>
      </trkpt>
      <trkpt lat="44.17001" lon="7.65001">
        <ele>2223</ele>
      </trkpt>
      <trkpt lat="44.16981" lon="7.65042">
        <ele>2222</ele>
      </trkpt>
      <trkpt lat="44.16969" lon="7.65082">
        <ele>2221</ele>
      </trkpt>
      <trkpt lat="44.16962" lon="7.65109">
        <ele>2218</ele>
      </trkpt>
      <trkpt lat="44.16965" lon="7.65185">
        <ele>2219</ele>
      </trkpt>
      <trkpt lat="44.16976" lon="7.65229">
        <ele>2219.1</ele>
      </trkpt>
      <trkpt lat="44.16993" lon="7.65266">
        <ele>2220</ele>
      </trkpt>
      <trkpt lat="44.17034" lon="7.65309">
        <ele>2217.4</ele>
      </trkpt>
      <trkpt lat="44.17042" lon="7.65327">
        <ele>2218</ele>
      </trkpt>
      <trkpt lat="44.17059" lon="7.65331">
        <ele>2218</ele>
      </trkpt>
      <trkpt lat="44.17068" lon="7.65346">
        <ele>2218</ele>
      </trkpt>
      <trkpt lat="44.17069" lon="7.65365">
        <ele>2217</ele>
      </trkpt>
      <trkpt lat="44.17062" lon="7.65378">
        <ele>2216</ele>
      </trkpt>
      <trkpt lat="44.17052" lon="7.65381">
        <ele>2216</ele>
      </trkpt>
      <trkpt lat="44.17029" lon="7.65377">
        <ele>2215</ele>
      </trkpt>
      <trkpt lat="44.17005" lon="7.65382">
        <ele>2215</ele>
      </trkpt>
      <trkpt lat="44.16996" lon="7.654">
        <ele>2217</ele>
      </trkpt>
      <trkpt lat="44.16981" lon="7.65405">
        <ele>2218.5</ele>
      </trkpt>
      <trkpt lat="44.16973" lon="7.6542">
        <ele>2217</ele>
      </trkpt>
      <trkpt lat="44.16969" lon="7.65443">
        <ele>2217.6</ele>
      </trkpt>
      <trkpt lat="44.16974" lon="7.65481">
        <ele>2215</ele>
      </trkpt>
      <trkpt lat="44.16967" lon="7.65516">
        <ele>2206</ele>
      </trkpt>
      <trkpt lat="44.16949" lon="7.65544">
        <ele>2205</ele>
      </trkpt>
      <trkpt lat="44.16938" lon="7.65569">
        <ele>2205</ele>
      </trkpt>
      <trkpt lat="44.16932" lon="7.6559">
        <ele>2198.1</ele>
      </trkpt>
      <trkpt lat="44.16917" lon="7.65597">
        <ele>2200</ele>
      </trkpt>
      <trkpt lat="44.16895" lon="7.65602">
        <ele>2198</ele>
      </trkpt>
      <trkpt lat="44.16872" lon="7.65625">
        <ele>2194</ele>
      </trkpt>
      <trkpt lat="44.16888" lon="7.65629">
        <ele>2196</ele>
      </trkpt>
      <trkpt lat="44.16909" lon="7.65612">
        <ele>2198.8</ele>
      </trkpt>
      <trkpt lat="44.16926" lon="7.65615">
        <ele>2194</ele>
      </trkpt>
      <trkpt lat="44.16938" lon="7.65607">
        <ele>2193</ele>
      </trkpt>
      <trkpt lat="44.16962" lon="7.65588">
        <ele>2189</ele>
      </trkpt>
      <trkpt lat="44.16972" lon="7.65569">
        <ele>2197</ele>
      </trkpt>
      <trkpt lat="44.16998" lon="7.65555">
        <ele>2196</ele>
      </trkpt>
      <trkpt lat="44.17016" lon="7.65555">
        <ele>2186</ele>
      </trkpt>
      <trkpt lat="44.17035" lon="7.65533">
        <ele>2188</ele>
      </trkpt>
      <trkpt lat="44.17054" lon="7.65533">
        <ele>2188</ele>
      </trkpt>
      <trkpt lat="44.17075" lon="7.65558">
        <ele>2181</ele>
      </trkpt>
      <trkpt lat="44.17099" lon="7.65588">
        <ele>2167</ele>
        <time>2020-08-01T09:10:28Z</time>
      </trkpt>
      <trkpt lat="44.17113" lon="7.65585">
        <ele>2167</ele>
      </trkpt>
      <trkpt lat="44.17122" lon="7.65593">
        <ele>2167</ele>
      </trkpt>
      <trkpt lat="44.17126" lon="7.656">
        <ele>2166.4</ele>
        <time>2020-08-01T09:11:10Z</time>
      </trkpt>
      <trkpt lat="44.17122" lon="7.65612">
        <ele>2165</ele>
      </trkpt>
      <trkpt lat="44.17109" lon="7.65615">
        <ele>2164</ele>
      </trkpt>
      <trkpt lat="44.17095" lon="7.65609">
        <ele>2164</ele>
      </trkpt>
      <trkpt lat="44.17076" lon="7.65605">
        <ele>2166</ele>
      </trkpt>
      <trkpt lat="44.17068" lon="7.65617">
        <ele>2164</ele>
      </trkpt>
      <trkpt lat="44.17059" lon="7.65628">
        <ele>2163</ele>
      </trkpt>
      <trkpt lat="44.17045" lon="7.65647">
        <ele>2161</ele>
      </trkpt>
      <trkpt lat="44.17001" lon="7.65675">
        <ele>2157</ele>
      </trkpt>
      <trkpt lat="44.16995" lon="7.65746">
        <ele>2154</ele>
      </trkpt>
      <trkpt lat="44.16982" lon="7.65796">
        <ele>2158</ele>
      </trkpt>
      <trkpt lat="44.16973" lon="7.65851">
        <ele>2144</ele>
      </trkpt>
      <trkpt lat="44.16971" lon="7.65884">
        <ele>2141</ele>
      </trkpt>
      <trkpt lat="44.16961" lon="7.65916">
        <ele>2140</ele>
      </trkpt>
      <trkpt lat="44.16942" lon="7.65928">
        <ele>2133</ele>
      </trkpt>
      <trkpt lat="44.1692" lon="7.65962">
        <ele>2131</ele>
      </trkpt>
      <trkpt lat="44.1692" lon="7.6599">
        <ele>2128.8</ele>
      </trkpt>
      <trkpt lat="44.16903" lon="7.6604">
        <ele>2132.3</ele>
      </trkpt>
      <trkpt lat="44.16909" lon="7.66078">
        <ele>2128</ele>
      </trkpt>
      <trkpt lat="44.16934" lon="7.6611">
        <ele>2124</ele>
      </trkpt>
      <trkpt lat="44.16965" lon="7.6614">
        <ele>2122.5</ele>
        <time>2020-08-01T09:13:33Z</time>
      </trkpt>
      <trkpt lat="44.16976" lon="7.66143">
        <ele>2121.7</ele>
        <time>2020-08-01T09:15:58Z</time>
      </trkpt>
      <trkpt lat="44.16989" lon="7.66168">
        <ele>2118.7</ele>
      </trkpt>
      <trkpt lat="44.16985" lon="7.66203">
        <ele>2118</ele>
      </trkpt>
      <trkpt lat="44.16993" lon="7.66218">
        <ele>2117</ele>
      </trkpt>
      <trkpt lat="44.17015" lon="7.66231">
        <ele>2113.7</ele>
      </trkpt>
      <trkpt lat="44.17089" lon="7.66286">
        <ele>2117</ele>
      </trkpt>
      <trkpt lat="44.17095" lon="7.66301">
        <ele>2117</ele>
      </trkpt>
      <trkpt lat="44.17097" lon="7.66317">
        <ele>2115</ele>
      </trkpt>
      <trkpt lat="44.17087" lon="7.66345">
        <ele>2114</ele>
      </trkpt>
      <trkpt lat="44.17089" lon="7.66365">
        <ele>2119</ele>
      </trkpt>
      <trkpt lat="44.17081" lon="7.66404">
        <ele>2113.5</ele>
      </trkpt>
      <trkpt lat="44.17033" lon="7.6648">
        <ele>2114</ele>
      </trkpt>
      <trkpt lat="44.17002" lon="7.66495">
        <ele>2110</ele>
      </trkpt>
      <trkpt lat="44.16994" lon="7.6651">
        <ele>2107</ele>
      </trkpt>
      <trkpt lat="44.16992" lon="7.6653">
        <ele>2106</ele>
      </trkpt>
      <trkpt lat="44.17009" lon="7.66552">
        <ele>2112.2</ele>
      </trkpt>
      <trkpt lat="44.17023" lon="7.66594">
        <ele>2112.2</ele>
      </trkpt>
      <trkpt lat="44.17022" lon="7.66613">
        <ele>2114</ele>
      </trkpt>
      <trkpt lat="44.17015" lon="7.66627">
        <ele>2113</ele>
      </trkpt>
      <trkpt lat="44.16974" lon="7.66658">
        <ele>2100.5</ele>
      </trkpt>
      <trkpt lat="44.16935" lon="7.66699">
        <ele>2102</ele>
      </trkpt>
      <trkpt lat="44.16932" lon="7.66715">
        <ele>2103.1</ele>
      </trkpt>
      <trkpt lat="44.16904" lon="7.66722">
        <ele>2092</ele>
      </trkpt>
      <trkpt lat="44.16874" lon="7.66753">
        <ele>2099</ele>
      </trkpt>
      <trkpt lat="44.16859" lon="7.66748">
        <ele>2086</ele>
      </trkpt>
      <trkpt lat="44.16849" lon="7.66741">
        <ele>2085</ele>
      </trkpt>
      <trkpt lat="44.16835" lon="7.66741">
        <ele>2083</ele>
      </trkpt>
      <trkpt lat="44.16824" lon="7.66756">
        <ele>2083</ele>
      </trkpt>
      <trkpt lat="44.16814" lon="7.6677">
        <ele>2085</ele>
      </trkpt>
      <trkpt lat="44.16792" lon="7.66781">
        <ele>2085</ele>
      </trkpt>
      <trkpt lat="44.16783" lon="7.66776">
        <ele>2084</ele>
      </trkpt>
      <trkpt lat="44.16754" lon="7.66783">
        <ele>2082.5</ele>
        <time>2020-08-01T09:23:36Z</time>
      </trkpt>
      <trkpt lat="44.16721" lon="7.66767">
        <ele>2076</ele>
      </trkpt>
      <trkpt lat="44.16696" lon="7.66788">
        <ele>2077</ele>
      </trkpt>
      <trkpt lat="44.16684" lon="7.66778">
        <ele>2075</ele>
      </trkpt>
      <trkpt lat="44.16671" lon="7.66801">
        <ele>2078</ele>
      </trkpt>
      <trkpt lat="44.16671" lon="7.66822">
        <ele>2080</ele>
      </trkpt>
      <trkpt lat="44.16671" lon="7.66834">
        <ele>2084</ele>
      </trkpt>
      <trkpt lat="44.16658" lon="7.6684">
        <ele>2083</ele>
      </trkpt>
      <trkpt lat="44.16641" lon="7.6683">
        <ele>2075</ele>
      </trkpt>
      <trkpt lat="44.16621" lon="7.66829">
        <ele>2073</ele>
      </trkpt>
      <trkpt lat="44.16601" lon="7.66832">
        <ele>2072</ele>
      </trkpt>
      <trkpt lat="44.16589" lon="7.6685">
        <ele>2079</ele>
      </trkpt>
      <trkpt lat="44.16571" lon="7.66859">
        <ele>2076</ele>
      </trkpt>
      <trkpt lat="44.16558" lon="7.66853">
        <ele>2075</ele>
      </trkpt>
      <trkpt lat="44.16536" lon="7.6687">
        <ele>2075.3</ele>
        <time>2020-08-01T09:24:37Z</time>
      </trkpt>
      <trkpt lat="44.16527" lon="7.66877">
        <ele>2075</ele>
      </trkpt>
      <trkpt lat="44.16504" lon="7.66856">
        <ele>2072</ele>
      </trkpt>
      <trkpt lat="44.1649" lon="7.66863">
        <ele>2069</ele>
      </trkpt>
      <trkpt lat="44.16479" lon="7.66866">
        <ele>2069</ele>
      </trkpt>
      <trkpt lat="44.16481" lon="7.66884">
        <ele>2070</ele>
      </trkpt>
      <trkpt lat="44.16491" lon="7.669">
        <ele>2073</ele>
      </trkpt>
      <trkpt lat="44.16488" lon="7.6691">
        <ele>2074</ele>
      </trkpt>
      <trkpt lat="44.16464" lon="7.66914">
        <ele>2071</ele>
      </trkpt>
      <trkpt lat="44.16426" lon="7.66952">
        <ele>2081.6</ele>
      </trkpt>
      <trkpt lat="44.16403" lon="7.66952">
        <ele>2077</ele>
      </trkpt>
      <trkpt lat="44.16373" lon="7.66974">
        <ele>2080</ele>
      </trkpt>
      <trkpt lat="44.16333" lon="7.66955">
        <ele>2076</ele>
      </trkpt>
      <trkpt lat="44.16321" lon="7.66949">
        <ele>2075</ele>
      </trkpt>
      <trkpt lat="44.16299" lon="7.66949">
        <ele>2076</ele>
      </trkpt>
      <trkpt lat="44.16276" lon="7.66967">
        <ele>2079</ele>
      </trkpt>
      <trkpt lat="44.16263" lon="7.66976">
        <ele>2082</ele>
      </trkpt>
      <trkpt lat="44.16246" lon="7.66974">
        <ele>2084.4</ele>
        <time>2020-08-01T09:26:40Z</time>
      </trkpt>
      <trkpt lat="44.1618" lon="7.66953">
        <ele>2081</ele>
      </trkpt>
      <trkpt lat="44.16153" lon="7.66958">
        <ele>2085</ele>
      </trkpt>
      <trkpt lat="44.16137" lon="7.66948">
        <ele>2082</ele>
      </trkpt>
      <trkpt lat="44.16128" lon="7.66955">
        <ele>2084</ele>
      </trkpt>
      <trkpt lat="44.16119" lon="7.66964">
        <ele>2085.3</ele>
        <time>2020-08-01T09:27:40Z</time>
      </trkpt>
      <trkpt lat="44.16108" lon="7.66986">
        <ele>2088.7</ele>
        <time>2020-08-01T09:28:39Z</time>
      </trkpt>
      <trkpt lat="44.16096" lon="7.67">
        <ele>2100</ele>
      </trkpt>
      <trkpt lat="44.16045" lon="7.66994">
        <ele>2089</ele>
      </trkpt>
      <trkpt lat="44.16017" lon="7.66967">
        <ele>2086.5</ele>
        <time>2020-08-01T09:29:38Z</time>
      </trkpt>
      <trkpt lat="44.15989" lon="7.66985">
        <ele>2086</ele>
      </trkpt>
      <trkpt lat="44.15978" lon="7.67008">
        <ele>2095</ele>
      </trkpt>
      <trkpt lat="44.15963" lon="7.67018">
        <ele>2094</ele>
      </trkpt>
      <trkpt lat="44.15939" lon="7.67046">
        <ele>2095</ele>
      </trkpt>
      <trkpt lat="44.15933" lon="7.67076">
        <ele>2098</ele>
      </trkpt>
      <trkpt lat="44.15925" lon="7.67094">
        <ele>2105</ele>
      </trkpt>
      <trkpt lat="44.15913" lon="7.67111">
        <ele>2103.5</ele>
        <time>2020-08-01T09:30:38Z</time>
      </trkpt>
      <trkpt lat="44.15895" lon="7.67114">
        <ele>2104</ele>
      </trkpt>
      <trkpt lat="44.1588" lon="7.67116">
        <ele>2104</ele>
      </trkpt>
      <trkpt lat="44.15854" lon="7.67131">
        <ele>2104</ele>
      </trkpt>
      <trkpt lat="44.15838" lon="7.67145">
        <ele>2104.8</ele>
      </trkpt>
      <trkpt lat="44.15833" lon="7.67156">
        <ele>2105.3</ele>
      </trkpt>
      <trkpt lat="44.15818" lon="7.67158">
        <ele>2105.2</ele>
      </trkpt>
      <trkpt lat="44.15796" lon="7.67148">
        <ele>2105</ele>
      </trkpt>
      <trkpt lat="44.1578" lon="7.67128">
        <ele>2105</ele>
      </trkpt>
      <trkpt lat="44.15729" lon="7.67113">
        <ele>2111.8</ele>
      </trkpt>
      <trkpt lat="44.15699" lon="7.67109">
        <ele>2115</ele>
      </trkpt>
      <trkpt lat="44.15665" lon="7.67112">
        <ele>2126</ele>
      </trkpt>
      <trkpt lat="44.1565" lon="7.67139">
        <ele>2122</ele>
      </trkpt>
      <trkpt lat="44.15622" lon="7.67152">
        <ele>2123</ele>
      </trkpt>
      <trkpt lat="44.156" lon="7.67145">
        <ele>2125</ele>
      </trkpt>
      <trkpt lat="44.15574" lon="7.67141">
        <ele>2132.1</ele>
      </trkpt>
      <trkpt lat="44.15559" lon="7.67123">
        <ele>2137</ele>
      </trkpt>
      <trkpt lat="44.15534" lon="7.67128">
        <ele>2137</ele>
      </trkpt>
      <trkpt lat="44.15527" lon="7.67102">
        <ele>2143</ele>
      </trkpt>
      <trkpt lat="44.1551" lon="7.67087">
        <ele>2150.3</ele>
      </trkpt>
      <trkpt lat="44.15492" lon="7.67096">
        <ele>2155</ele>
      </trkpt>
      <trkpt lat="44.15475" lon="7.67116">
        <ele>2151.7</ele>
      </trkpt>
      <trkpt lat="44.15459" lon="7.67114">
        <ele>2154</ele>
      </trkpt>
      <trkpt lat="44.15445" lon="7.67124">
        <ele>2154</ele>
      </trkpt>
      <trkpt lat="44.15421" lon="7.67132">
        <ele>2153</ele>
      </trkpt>
      <trkpt lat="44.15406" lon="7.67124">
        <ele>2171.4</ele>
      </trkpt>
      <trkpt lat="44.15382" lon="7.67131">
        <ele>2173</ele>
      </trkpt>
      <trkpt lat="44.15372" lon="7.67137">
        <ele>2174</ele>
      </trkpt>
      <trkpt lat="44.15362" lon="7.67148">
        <ele>2174.3</ele>
      </trkpt>
      <trkpt lat="44.15338" lon="7.67192">
        <ele>2155</ele>
      </trkpt>
      <trkpt lat="44.15311" lon="7.67201">
        <ele>2176.7</ele>
      </trkpt>
      <trkpt lat="44.15284" lon="7.67228">
        <ele>2178.9</ele>
      </trkpt>
      <trkpt lat="44.15252" lon="7.67285">
        <ele>2159</ele>
      </trkpt>
      <trkpt lat="44.15211" lon="7.67302">
        <ele>2181</ele>
      </trkpt>
      <trkpt lat="44.15181" lon="7.67306">
        <ele>2185.3</ele>
      </trkpt>
      <trkpt lat="44.15165" lon="7.6732">
        <ele>2190</ele>
      </trkpt>
      <trkpt lat="44.15144" lon="7.67391">
        <ele>2188</ele>
      </trkpt>
      <trkpt lat="44.15127" lon="7.67448">
        <ele>2187</ele>
      </trkpt>
      <trkpt lat="44.15118" lon="7.67486">
        <ele>2188.6</ele>
      </trkpt>
      <trkpt lat="44.15113" lon="7.67531">
        <ele>2183</ele>
      </trkpt>
      <trkpt lat="44.15098" lon="7.67572">
        <ele>2186.6</ele>
        <time>2020-08-01T09:56:13Z</time>
      </trkpt>
      <trkpt lat="44.15076" lon="7.67634">
        <ele>2204</ele>
      </trkpt>
      <trkpt lat="44.1504" lon="7.67683">
        <ele>2205</ele>
      </trkpt>
      <trkpt lat="44.15027" lon="7.67705">
        <ele>2208</ele>
      </trkpt>
      <trkpt lat="44.15014" lon="7.6778">
        <ele>2199</ele>
      </trkpt>
      <trkpt lat="44.15004" lon="7.67804">
        <ele>2198.1</ele>
      </trkpt>
      <trkpt lat="44.15002" lon="7.67841">
        <ele>2201</ele>
      </trkpt>
      <trkpt lat="44.14982" lon="7.67936">
        <ele>2220</ele>
      </trkpt>
      <trkpt lat="44.1497" lon="7.67955">
        <ele>2225.1</ele>
      </trkpt>
      <trkpt lat="44.1498" lon="7.68012">
        <ele>2210</ele>
      </trkpt>
      <trkpt lat="44.14967" lon="7.68057">
        <ele>2216</ele>
      </trkpt>
      <trkpt lat="44.14953" lon="7.68102">
        <ele>2218.4</ele>
      </trkpt>
      <trkpt lat="44.14938" lon="7.6819">
        <ele>2220.5</ele>
        <time>2020-08-01T10:02:04Z</time>
      </trkpt>
      <trkpt lat="44.14932" lon="7.68238">
        <ele>2222</ele>
      </trkpt>
      <trkpt lat="44.14916" lon="7.68274">
        <ele>2238</ele>
        <time>2020-08-01T10:03:03Z</time>
      </trkpt>
      <trkpt lat="44.14898" lon="7.68317">
        <ele>2231.9</ele>
      </trkpt>
      <trkpt lat="44.14874" lon="7.68318">
        <ele>2237.9</ele>
        <time>2020-08-01T10:06:18Z</time>
      </trkpt>
      <trkpt lat="44.1485" lon="7.68323">
        <ele>2241</ele>
      </trkpt>
      <trkpt lat="44.14819" lon="7.68345">
        <ele>2245</ele>
      </trkpt>
      <trkpt lat="44.14793" lon="7.68384">
        <ele>2247</ele>
      </trkpt>
      <trkpt lat="44.1477" lon="7.6849">
        <ele>2233</ele>
      </trkpt>
      <trkpt lat="44.14739" lon="7.68595">
        <ele>2229.4</ele>
        <time>2020-08-01T10:07:30Z</time>
      </trkpt>
      <trkpt lat="44.14726" lon="7.68625">
        <ele>2228</ele>
      </trkpt>
      <trkpt lat="44.14719" lon="7.68677">
        <ele>2222.2</ele>
      </trkpt>
      <trkpt lat="44.14734" lon="7.68728">
        <ele>2222</ele>
      </trkpt>
      <trkpt lat="44.14771" lon="7.68791">
        <ele>2201</ele>
      </trkpt>
      <trkpt lat="44.14778" lon="7.68822">
        <ele>2202.7</ele>
        <time>2020-08-01T10:08:30Z</time>
      </trkpt>
      <trkpt lat="44.14759" lon="7.69115">
        <ele>2188</ele>
      </trkpt>
      <trkpt lat="44.14738" lon="7.6932">
        <ele>2189.7</ele>
      </trkpt>
      <trkpt lat="44.14744" lon="7.69459">
        <ele>2175</ele>
      </trkpt>
      <trkpt lat="44.14755" lon="7.69522">
        <ele>2163</ele>
      </trkpt>
      <trkpt lat="44.14746" lon="7.69553">
        <ele>2164.8</ele>
        <time>2020-08-01T10:11:21Z</time>
      </trkpt>
      <trkpt lat="44.14725" lon="7.6955">
        <ele>2164</ele>
      </trkpt>
      <trkpt lat="44.14714" lon="7.69482">
        <ele>2173.3</ele>
        <time>2020-08-01T10:17:32Z</time>
      </trkpt>
      <trkpt lat="44.14666" lon="7.69375">
        <ele>2164</ele>
      </trkpt>
      <trkpt lat="44.14636" lon="7.69294">
        <ele>2179</ele>
      </trkpt>
      <trkpt lat="44.14603" lon="7.6925">
        <ele>2183</ele>
      </trkpt>
      <trkpt lat="44.14579" lon="7.6919">
        <ele>2158</ele>
      </trkpt>
      <trkpt lat="44.14537" lon="7.68974">
        <ele>2157.9</ele>
      </trkpt>
      <trkpt lat="44.14534" lon="7.68892">
        <ele>2162</ele>
      </trkpt>
      <trkpt lat="44.14525" lon="7.68846">
        <ele>2159.6</ele>
      </trkpt>
      <trkpt lat="44.14501" lon="7.68797">
        <ele>2163</ele>
      </trkpt>
      <trkpt lat="44.14482" lon="7.68729">
        <ele>2127.6</ele>
      </trkpt>
      <trkpt lat="44.14485" lon="7.68693">
        <ele>2127</ele>
      </trkpt>
      <trkpt lat="44.14499" lon="7.68659">
        <ele>2138</ele>
      </trkpt>
      <trkpt lat="44.14488" lon="7.68616">
        <ele>2122</ele>
      </trkpt>
      <trkpt lat="44.14503" lon="7.68545">
        <ele>2165</ele>
      </trkpt>
      <trkpt lat="44.14484" lon="7.68509">
        <ele>2128</ele>
      </trkpt>
      <trkpt lat="44.1448" lon="7.68472">
        <ele>2127</ele>
      </trkpt>
      <trkpt lat="44.14475" lon="7.68386">
        <ele>2135</ele>
      </trkpt>
      <trkpt lat="44.14452" lon="7.68306">
        <ele>2135</ele>
      </trkpt>
      <trkpt lat="44.14435" lon="7.68236">
        <ele>2131.2</ele>
        <time>2020-08-01T10:19:44Z</time>
      </trkpt>
      <trkpt lat="44.14421" lon="7.68192">
        <ele>2130</ele>
      </trkpt>
      <trkpt lat="44.14427" lon="7.68125">
        <ele>2128</ele>
      </trkpt>
      <trkpt lat="44.14428" lon="7.68059">
        <ele>2123</ele>
      </trkpt>
      <trkpt lat="44.14418" lon="7.68017">
        <ele>2120</ele>
      </trkpt>
      <trkpt lat="44.1442" lon="7.67975">
        <ele>2129</ele>
      </trkpt>
      <trkpt lat="44.14401" lon="7.67924">
        <ele>2101</ele>
      </trkpt>
      <trkpt lat="44.14392" lon="7.67856">
        <ele>2102</ele>
      </trkpt>
      <trkpt lat="44.14343" lon="7.67754">
        <ele>2099</ele>
      </trkpt>
      <trkpt lat="44.14321" lon="7.67749">
        <ele>2091</ele>
      </trkpt>
      <trkpt lat="44.14291" lon="7.6771">
        <ele>2087</ele>
      </trkpt>
      <trkpt lat="44.1422" lon="7.67692">
        <ele>2078.4</ele>
      </trkpt>
      <trkpt lat="44.14179" lon="7.67687">
        <ele>2081</ele>
      </trkpt>
      <trkpt lat="44.14154" lon="7.67695">
        <ele>2080</ele>
      </trkpt>
      <trkpt lat="44.14084" lon="7.67703">
        <ele>2081</ele>
      </trkpt>
      <trkpt lat="44.14045" lon="7.67712">
        <ele>2073</ele>
      </trkpt>
      <trkpt lat="44.14008" lon="7.67693">
        <ele>2073</ele>
      </trkpt>
      <trkpt lat="44.1395" lon="7.67656">
        <ele>2078.8</ele>
        <time>2020-08-01T10:22:09Z</time>
      </trkpt>
      <trkpt lat="44.13938" lon="7.67639">
        <ele>2080</ele>
      </trkpt>
      <trkpt lat="44.13906" lon="7.67646">
        <ele>2072</ele>
      </trkpt>
      <trkpt lat="44.13856" lon="7.67672">
        <ele>2055</ele>
      </trkpt>
      <trkpt lat="44.13772" lon="7.67729">
        <ele>2039</ele>
      </trkpt>
      <trkpt lat="44.13764" lon="7.67727">
        <ele>2039</ele>
      </trkpt>
      <trkpt lat="44.13711" lon="7.67621">
        <ele>2033.8</ele>
      </trkpt>
      <trkpt lat="44.13672" lon="7.67562">
        <ele>2038.8</ele>
        <time>2020-08-01T10:24:05Z</time>
      </trkpt>
      <trkpt lat="44.13667" lon="7.67513">
        <ele>2043</ele>
      </trkpt>
      <trkpt lat="44.13648" lon="7.67495">
        <ele>2030</ele>
      </trkpt>
      <trkpt lat="44.13618" lon="7.67439">
        <ele>2028</ele>
      </trkpt>
      <trkpt lat="44.13589" lon="7.67432">
        <ele>2023</ele>
      </trkpt>
      <trkpt lat="44.13559" lon="7.67409">
        <ele>2020</ele>
      </trkpt>
      <trkpt lat="44.13502" lon="7.67375">
        <ele>2015</ele>
      </trkpt>
      <trkpt lat="44.1347" lon="7.67329">
        <ele>2017</ele>
      </trkpt>
      <trkpt lat="44.13445" lon="7.67345">
        <ele>2004</ele>
      </trkpt>
      <trkpt lat="44.13434" lon="7.67371">
        <ele>2001</ele>
      </trkpt>
      <trkpt lat="44.1341" lon="7.67396">
        <ele>2006</ele>
      </trkpt>
      <trkpt lat="44.13374" lon="7.6745">
        <ele>2004</ele>
      </trkpt>
      <trkpt lat="44.13377" lon="7.67498">
        <ele>1999</ele>
      </trkpt>
      <trkpt lat="44.13367" lon="7.67528">
        <ele>1992</ele>
      </trkpt>
      <trkpt lat="44.13362" lon="7.67589">
        <ele>1983</ele>
        <time>2020-08-01T10:26:22Z</time>
      </trkpt>
      <trkpt lat="44.13336" lon="7.67743">
        <ele>1979</ele>
      </trkpt>
      <trkpt lat="44.13345" lon="7.6779">
        <ele>1961</ele>
      </trkpt>
      <trkpt lat="44.13274" lon="7.67834">
        <ele>1979</ele>
      </trkpt>
      <trkpt lat="44.13203" lon="7.67955">
        <ele>1983</ele>
      </trkpt>
      <trkpt lat="44.13185" lon="7.68015">
        <ele>1978</ele>
      </trkpt>
      <trkpt lat="44.13181" lon="7.68081">
        <ele>1976.7</ele>
        <time>2020-08-01T10:27:56Z</time>
      </trkpt>
      <trkpt lat="44.13173" lon="7.68115">
        <ele>1964</ele>
      </trkpt>
      <trkpt lat="44.13156" lon="7.68139">
        <ele>1970.8</ele>
      </trkpt>
      <trkpt lat="44.13139" lon="7.68143">
        <ele>1971</ele>
      </trkpt>
      <trkpt lat="44.13129" lon="7.68159">
        <ele>1969</ele>
      </trkpt>
      <trkpt lat="44.13117" lon="7.68173">
        <ele>1948</ele>
      </trkpt>
      <trkpt lat="44.13106" lon="7.68186">
        <ele>1946</ele>
      </trkpt>
      <trkpt lat="44.13033" lon="7.68074">
        <ele>1983</ele>
      </trkpt>
      <trkpt lat="44.12983" lon="7.67984">
        <ele>1995</ele>
      </trkpt>
      <trkpt lat="44.1296" lon="7.67968">
        <ele>1994</ele>
      </trkpt>
      <trkpt lat="44.12937" lon="7.6797">
        <ele>1990</ele>
      </trkpt>
      <trkpt lat="44.12914" lon="7.68005">
        <ele>1968.9</ele>
        <time>2020-08-01T10:31:20Z</time>
      </trkpt>
      <trkpt lat="44.12882" lon="7.68047">
        <ele>1961</ele>
      </trkpt>
      <trkpt lat="44.12865" lon="7.68043">
        <ele>1961</ele>
      </trkpt>
      <trkpt lat="44.12851" lon="7.68024">
        <ele>1963.2</ele>
        <time>2020-08-01T11:14:55Z</time>
      </trkpt>
      <trkpt lat="44.12835" lon="7.67996">
        <ele>1970</ele>
      </trkpt>
      <trkpt lat="44.12821" lon="7.67989">
        <ele>1976</ele>
      </trkpt>
      <trkpt lat="44.12803" lon="7.68009">
        <ele>1966</ele>
      </trkpt>
      <trkpt lat="44.12786" lon="7.68019">
        <ele>1966</ele>
      </trkpt>
      <trkpt lat="44.12771" lon="7.68016">
        <ele>1968</ele>
      </trkpt>
      <trkpt lat="44.12706" lon="7.67992">
        <ele>1985</ele>
      </trkpt>
      <trkpt lat="44.12691" lon="7.67998">
        <ele>1983</ele>
      </trkpt>
      <trkpt lat="44.12677" lon="7.68015">
        <ele>1972</ele>
      </trkpt>
      <trkpt lat="44.12657" lon="7.68051">
        <ele>1978</ele>
      </trkpt>
      <trkpt lat="44.12668" lon="7.6808">
        <ele>1966.3</ele>
        <time>2020-08-01T11:15:59Z</time>
      </trkpt>
      <trkpt lat="44.12689" lon="7.68126">
        <ele>1961</ele>
      </trkpt>
      <trkpt lat="44.12687" lon="7.6815">
        <ele>1963</ele>
      </trkpt>
      <trkpt lat="44.12677" lon="7.68202">
        <ele>1964</ele>
      </trkpt>
      <trkpt lat="44.12687" lon="7.68253">
        <ele>1967</ele>
      </trkpt>
      <trkpt lat="44.12665" lon="7.68292">
        <ele>1991</ele>
      </trkpt>
      <trkpt lat="44.12678" lon="7.68335">
        <ele>1974</ele>
      </trkpt>
      <trkpt lat="44.12716" lon="7.68417">
        <ele>1968.1</ele>
        <time>2020-08-01T11:16:59Z</time>
      </trkpt>
      <trkpt lat="44.12767" lon="7.68553">
        <ele>1955</ele>
      </trkpt>
      <trkpt lat="44.12835" lon="7.68668">
        <ele>1953</ele>
      </trkpt>
      <trkpt lat="44.12838" lon="7.68708">
        <ele>1936</ele>
      </trkpt>
      <trkpt lat="44.12818" lon="7.6879">
        <ele>1970</ele>
      </trkpt>
      <trkpt lat="44.12852" lon="7.68919">
        <ele>1948.8</ele>
        <time>2020-08-01T11:18:34Z</time>
      </trkpt>
      <trkpt lat="44.12828" lon="7.69036">
        <ele>1954</ele>
      </trkpt>
      <trkpt lat="44.12805" lon="7.69076">
        <ele>1952</ele>
      </trkpt>
      <trkpt lat="44.12771" lon="7.69106">
        <ele>1945</ele>
      </trkpt>
      <trkpt lat="44.12728" lon="7.69113">
        <ele>1952</ele>
      </trkpt>
      <trkpt lat="44.12673" lon="7.69166">
        <ele>1948</ele>
      </trkpt>
      <trkpt lat="44.12565" lon="7.69219">
        <ele>1937.2</ele>
        <time>2020-08-01T11:19:56Z</time>
      </trkpt>
      <trkpt lat="44.12523" lon="7.69236">
        <ele>1931</ele>
      </trkpt>
      <trkpt lat="44.12501" lon="7.692">
        <ele>1937</ele>
      </trkpt>
      <trkpt lat="44.12487" lon="7.69149">
        <ele>1941</ele>
      </trkpt>
      <trkpt lat="44.12461" lon="7.69113">
        <ele>1943</ele>
      </trkpt>
      <trkpt lat="44.12404" lon="7.69073">
        <ele>1949</ele>
      </trkpt>
      <trkpt lat="44.12307" lon="7.69055">
        <ele>1936.2</ele>
        <time>2020-08-01T11:20:58Z</time>
      </trkpt>
      <trkpt lat="44.12286" lon="7.69053">
        <ele>1935</ele>
      </trkpt>
      <trkpt lat="44.12254" lon="7.69023">
        <ele>1938</ele>
      </trkpt>
      <trkpt lat="44.12207" lon="7.69027">
        <ele>1934</ele>
      </trkpt>
      <trkpt lat="44.12195" lon="7.69089">
        <ele>1923</ele>
      </trkpt>
      <trkpt lat="44.12189" lon="7.69118">
        <ele>1921</ele>
      </trkpt>
      <trkpt lat="44.12168" lon="7.69128">
        <ele>1920</ele>
      </trkpt>
      <trkpt lat="44.12121" lon="7.6914">
        <ele>1929.9</ele>
      </trkpt>
      <trkpt lat="44.12104" lon="7.69126">
        <ele>1933</ele>
      </trkpt>
      <trkpt lat="44.12084" lon="7.69162">
        <ele>1929</ele>
      </trkpt>
      <trkpt lat="44.12066" lon="7.69221">
        <ele>1933</ele>
      </trkpt>
      <trkpt lat="44.12045" lon="7.69266">
        <ele>1927</ele>
      </trkpt>
      <trkpt lat="44.12036" lon="7.69355">
        <ele>1919</ele>
      </trkpt>
      <trkpt lat="44.12034" lon="7.69478">
        <ele>1916.5</ele>
      </trkpt>
      <trkpt lat="44.12011" lon="7.69538">
        <ele>1917</ele>
      </trkpt>
      <trkpt lat="44.12008" lon="7.69599">
        <ele>1916</ele>
      </trkpt>
      <trkpt lat="44.12" lon="7.6966">
        <ele>1914</ele>
      </trkpt>
      <trkpt lat="44.1197" lon="7.69715">
        <ele>1922</ele>
      </trkpt>
      <trkpt lat="44.11963" lon="7.69759">
        <ele>1913</ele>
      </trkpt>
      <trkpt lat="44.11936" lon="7.69794">
        <ele>1913.6</ele>
      </trkpt>
      <trkpt lat="44.11895" lon="7.69822">
        <ele>1919</ele>
      </trkpt>
      <trkpt lat="44.11859" lon="7.69921">
        <ele>1900</ele>
      </trkpt>
      <trkpt lat="44.11855" lon="7.69973">
        <ele>1898</ele>
      </trkpt>
      <trkpt lat="44.11846" lon="7.70005">
        <ele>1896</ele>
      </trkpt>
      <trkpt lat="44.11824" lon="7.69955">
        <ele>1893.4</ele>
        <time>2020-08-01T11:25:05Z</time>
      </trkpt>
      <trkpt lat="44.11802" lon="7.69844">
        <ele>1904</ele>
      </trkpt>
      <trkpt lat="44.11746" lon="7.69758">
        <ele>1911</ele>
      </trkpt>
      <trkpt lat="44.11725" lon="7.69758">
        <ele>1909</ele>
      </trkpt>
      <trkpt lat="44.11699" lon="7.698">
        <ele>1904.7</ele>
      </trkpt>
      <trkpt lat="44.11693" lon="7.69812">
        <ele>1903.6</ele>
      </trkpt>
      <trkpt lat="44.11697" lon="7.69811">
        <ele>1903.8</ele>
      </trkpt>
      <trkpt lat="44.11679" lon="7.69841">
        <ele>1895</ele>
      </trkpt>
      <trkpt lat="44.11661" lon="7.69845">
        <ele>1896.6</ele>
        <time>2020-08-01T11:31:04Z</time>
      </trkpt>
      <trkpt lat="44.11646" lon="7.69846">
        <ele>1896</ele>
      </trkpt>
      <trkpt lat="44.11628" lon="7.69887">
        <ele>1892</ele>
      </trkpt>
      <trkpt lat="44.11606" lon="7.69876">
        <ele>1893</ele>
      </trkpt>
      <trkpt lat="44.11585" lon="7.69821">
        <ele>1903</ele>
      </trkpt>
      <trkpt lat="44.11569" lon="7.69818">
        <ele>1908</ele>
      </trkpt>
      <trkpt lat="44.11541" lon="7.69841">
        <ele>1903</ele>
      </trkpt>
      <trkpt lat="44.11506" lon="7.69913">
        <ele>1902.5</ele>
        <time>2020-08-01T11:32:04Z</time>
      </trkpt>
      <trkpt lat="44.11474" lon="7.70001">
        <ele>1901</ele>
      </trkpt>
      <trkpt lat="44.11451" lon="7.70019">
        <ele>1906</ele>
      </trkpt>
      <trkpt lat="44.11444" lon="7.70064">
        <ele>1905</ele>
      </trkpt>
      <trkpt lat="44.11458" lon="7.70132">
        <ele>1895</ele>
      </trkpt>
      <trkpt lat="44.11446" lon="7.70152">
        <ele>1898</ele>
      </trkpt>
      <trkpt lat="44.1142" lon="7.70161">
        <ele>1905</ele>
      </trkpt>
      <trkpt lat="44.11405" lon="7.70203">
        <ele>1910</ele>
      </trkpt>
      <trkpt lat="44.1138" lon="7.70259">
        <ele>1902</ele>
      </trkpt>
      <trkpt lat="44.11306" lon="7.70421">
        <ele>1897.6</ele>
        <time>2020-08-01T11:33:46Z</time>
      </trkpt>
      <trkpt lat="44.11263" lon="7.70499">
        <ele>1898</ele>
      </trkpt>
      <trkpt lat="44.11248" lon="7.70508">
        <ele>1896</ele>
      </trkpt>
      <trkpt lat="44.11221" lon="7.70487">
        <ele>1898.9</ele>
        <time>2020-08-01T11:34:45Z</time>
      </trkpt>
      <trkpt lat="44.112" lon="7.70435">
        <ele>1902</ele>
      </trkpt>
      <trkpt lat="44.11176" lon="7.70406">
        <ele>1911</ele>
      </trkpt>
      <trkpt lat="44.11094" lon="7.70386">
        <ele>1906</ele>
      </trkpt>
      <trkpt lat="44.11025" lon="7.7035">
        <ele>1900</ele>
      </trkpt>
      <trkpt lat="44.1099" lon="7.70335">
        <ele>1899</ele>
      </trkpt>
      <trkpt lat="44.10951" lon="7.70329">
        <ele>1905.8</ele>
        <time>2020-08-01T11:35:55Z</time>
      </trkpt>
      <trkpt lat="44.10902" lon="7.70385">
        <ele>1903</ele>
      </trkpt>
      <trkpt lat="44.10871" lon="7.70389">
        <ele>1906</ele>
      </trkpt>
      <trkpt lat="44.1083" lon="7.70413">
        <ele>1912</ele>
      </trkpt>
      <trkpt lat="44.10811" lon="7.70442">
        <ele>1916</ele>
      </trkpt>
      <trkpt lat="44.10807" lon="7.70509">
        <ele>1902</ele>
      </trkpt>
      <trkpt lat="44.10778" lon="7.70585">
        <ele>1895.7</ele>
      </trkpt>
      <trkpt lat="44.1074" lon="7.70639">
        <ele>1918</ele>
      </trkpt>
      <trkpt lat="44.10731" lon="7.70695">
        <ele>1908</ele>
      </trkpt>
      <trkpt lat="44.10707" lon="7.70767">
        <ele>1900</ele>
      </trkpt>
      <trkpt lat="44.10645" lon="7.70889">
        <ele>1909</ele>
      </trkpt>
      <trkpt lat="44.10585" lon="7.70957">
        <ele>1899</ele>
      </trkpt>
      <trkpt lat="44.10564" lon="7.70994">
        <ele>1912.9</ele>
      </trkpt>
      <trkpt lat="44.10529" lon="7.71035">
        <ele>1899</ele>
      </trkpt>
      <trkpt lat="44.10507" lon="7.71042">
        <ele>1900</ele>
      </trkpt>
      <trkpt lat="44.1049" lon="7.71029">
        <ele>1908</ele>
      </trkpt>
      <trkpt lat="44.10451" lon="7.70987">
        <ele>1928</ele>
      </trkpt>
      <trkpt lat="44.10425" lon="7.70974">
        <ele>1927</ele>
      </trkpt>
      <trkpt lat="44.10363" lon="7.70966">
        <ele>1920.7</ele>
      </trkpt>
      <trkpt lat="44.10293" lon="7.70931">
        <ele>1922</ele>
      </trkpt>
      <trkpt lat="44.10277" lon="7.70929">
        <ele>1923</ele>
      </trkpt>
      <trkpt lat="44.10263" lon="7.70944">
        <ele>1922</ele>
      </trkpt>
      <trkpt lat="44.10253" lon="7.71121">
        <ele>1901.6</ele>
        <time>2020-08-01T11:40:42Z</time>
      </trkpt>
      <trkpt lat="44.10241" lon="7.71216">
        <ele>1907</ele>
      </trkpt>
      <trkpt lat="44.10206" lon="7.71297">
        <ele>1905</ele>
      </trkpt>
      <trkpt lat="44.10212" lon="7.71364">
        <ele>1893</ele>
      </trkpt>
      <trkpt lat="44.10206" lon="7.71414">
        <ele>1893.3</ele>
      </trkpt>
      <trkpt lat="44.102" lon="7.71462">
        <ele>1883</ele>
      </trkpt>
      <trkpt lat="44.10189" lon="7.71502">
        <ele>1881</ele>
      </trkpt>
      <trkpt lat="44.10159" lon="7.71531">
        <ele>1910</ele>
      </trkpt>
      <trkpt lat="44.1017" lon="7.71606">
        <ele>1878</ele>
      </trkpt>
      <trkpt lat="44.10199" lon="7.71669">
        <ele>1880.4</ele>
      </trkpt>
      <trkpt lat="44.10235" lon="7.71675">
        <ele>1867</ele>
      </trkpt>
      <trkpt lat="44.10297" lon="7.71741">
        <ele>1848</ele>
      </trkpt>
      <trkpt lat="44.10299" lon="7.71846">
        <ele>1857</ele>
      </trkpt>
      <trkpt lat="44.10278" lon="7.71849">
        <ele>1858</ele>
      </trkpt>
      <trkpt lat="44.10248" lon="7.71844">
        <ele>1863.9</ele>
        <time>2020-08-01T11:44:02Z</time>
      </trkpt>
      <trkpt lat="44.10225" lon="7.71838">
        <ele>1863</ele>
      </trkpt>
      <trkpt lat="44.10168" lon="7.71898">
        <ele>1858</ele>
      </trkpt>
      <trkpt lat="44.10133" lon="7.71901">
        <ele>1859</ele>
      </trkpt>
      <trkpt lat="44.10095" lon="7.71863">
        <ele>1862</ele>
      </trkpt>
      <trkpt lat="44.09894" lon="7.71685">
        <ele>1857.7</ele>
        <time>2020-08-01T11:45:19Z</time>
      </trkpt>
      <trkpt lat="44.09805" lon="7.71563">
        <ele>1875</ele>
        <time>2020-08-01T11:46:10Z</time>
      </trkpt>
      <trkpt lat="44.09755" lon="7.7153">
        <ele>1878</ele>
      </trkpt>
      <trkpt lat="44.09731" lon="7.71588">
        <ele>1870</ele>
      </trkpt>
      <trkpt lat="44.09703" lon="7.71635">
        <ele>1870.3</ele>
        <time>2020-08-01T11:48:29Z</time>
      </trkpt>
      <trkpt lat="44.09659" lon="7.71696">
        <ele>1883</ele>
      </trkpt>
      <trkpt lat="44.09667" lon="7.71758">
        <ele>1862.5</ele>
        <time>2020-08-01T11:49:25Z</time>
      </trkpt>
      <trkpt lat="44.09636" lon="7.71971">
        <ele>1855</ele>
      </trkpt>
      <trkpt lat="44.09607" lon="7.72114">
        <ele>1835</ele>
      </trkpt>
      <trkpt lat="44.09611" lon="7.72257">
        <ele>1818</ele>
      </trkpt>
      <trkpt lat="44.09542" lon="7.72278">
        <ele>1823</ele>
      </trkpt>
      <trkpt lat="44.09478" lon="7.72206">
        <ele>1833.1</ele>
        <time>2020-08-01T11:51:37Z</time>
      </trkpt>
      <trkpt lat="44.0941" lon="7.7217">
        <ele>1831</ele>
      </trkpt>
      <trkpt lat="44.09348" lon="7.72208">
        <ele>1816.6</ele>
      </trkpt>
      <trkpt lat="44.09269" lon="7.72086">
        <ele>1845</ele>
      </trkpt>
      <trkpt lat="44.09164" lon="7.72079">
        <ele>1831.6</ele>
        <time>2020-08-01T11:53:53Z</time>
      </trkpt>
      <trkpt lat="44.09009" lon="7.71985">
        <ele>1843</ele>
      </trkpt>
      <trkpt lat="44.08991" lon="7.72071">
        <ele>1831.8</ele>
        <time>2020-08-01T11:54:52Z</time>
      </trkpt>
      <trkpt lat="44.08985" lon="7.72184">
        <ele>1823</ele>
      </trkpt>
      <trkpt lat="44.08936" lon="7.72205">
        <ele>1826</ele>
      </trkpt>
      <trkpt lat="44.08911" lon="7.72257">
        <ele>1825</ele>
      </trkpt>
      <trkpt lat="44.0884" lon="7.72257">
        <ele>1830</ele>
      </trkpt>
      <trkpt lat="44.08805" lon="7.72318">
        <ele>1843</ele>
        <time>2020-08-01T11:55:53Z</time>
      </trkpt>
      <trkpt lat="44.08819" lon="7.72433">
        <ele>1828</ele>
      </trkpt>
      <trkpt lat="44.08766" lon="7.72668">
        <ele>1824.8</ele>
        <time>2020-08-01T11:56:53Z</time>
      </trkpt>
      <trkpt lat="44.08729" lon="7.72795">
        <ele>1825</ele>
      </trkpt>
      <trkpt lat="44.08636" lon="7.72936">
        <ele>1824.7</ele>
        <time>2020-08-01T11:58:23Z</time>
      </trkpt>
      <trkpt lat="44.08621" lon="7.72951">
        <ele>1825.1</ele>
        <time>2020-08-01T11:59:22Z</time>
      </trkpt>
      <trkpt lat="44.08561" lon="7.72996">
        <ele>1838</ele>
      </trkpt>
      <trkpt lat="44.08505" lon="7.73067">
        <ele>1832.3</ele>
        <time>2020-08-01T12:00:23Z</time>
      </trkpt>
      <trkpt lat="44.08468" lon="7.73154">
        <ele>1838</ele>
      </trkpt>
      <trkpt lat="44.08397" lon="7.73222">
        <ele>1833.9</ele>
        <time>2020-08-01T12:01:22Z</time>
      </trkpt>
      <trkpt lat="44.08354" lon="7.73299">
        <ele>1819.2</ele>
      </trkpt>
      <trkpt lat="44.0833" lon="7.73237">
        <ele>1825.6</ele>
        <time>2020-08-01T12:03:21Z</time>
      </trkpt>
      <trkpt lat="44.08282" lon="7.73135">
        <ele>1836.6</ele>
        <time>2020-08-01T12:05:21Z</time>
      </trkpt>
      <trkpt lat="44.08184" lon="7.72947">
        <ele>1839.4</ele>
        <time>2020-08-01T12:06:21Z</time>
      </trkpt>
      <trkpt lat="44.08158" lon="7.7289">
        <ele>1831</ele>
      </trkpt>
      <trkpt lat="44.081" lon="7.72831">
        <ele>1843</ele>
        <time>2020-08-01T12:07:21Z</time>
      </trkpt>
      <trkpt lat="44.08006" lon="7.72777">
        <ele>1832.2</ele>
        <time>2020-08-01T12:08:20Z</time>
      </trkpt>
      <trkpt lat="44.07975" lon="7.72741">
        <ele>1824</ele>
      </trkpt>
      <trkpt lat="44.0797" lon="7.72639">
        <ele>1833.9</ele>
        <time>2020-08-01T12:09:20Z</time>
      </trkpt>
      <trkpt lat="44.07883" lon="7.72389">
        <ele>1842.7</ele>
        <time>2020-08-01T12:10:19Z</time>
      </trkpt>
      <trkpt lat="44.07862" lon="7.72273">
        <ele>1848</ele>
      </trkpt>
      <trkpt lat="44.07819" lon="7.72225">
        <ele>1841.4</ele>
        <time>2020-08-01T12:11:18Z</time>
      </trkpt>
      <trkpt lat="44.07811" lon="7.72218">
        <ele>1841.7</ele>
        <time>2020-08-01T12:17:15Z</time>
      </trkpt>
      <trkpt lat="44.07763" lon="7.72206">
        <ele>1840</ele>
      </trkpt>
      <trkpt lat="44.07748" lon="7.72173">
        <ele>1840</ele>
      </trkpt>
      <trkpt lat="44.07711" lon="7.72166">
        <ele>1842</ele>
      </trkpt>
      <trkpt lat="44.07701" lon="7.72112">
        <ele>1844</ele>
      </trkpt>
      <trkpt lat="44.07677" lon="7.72081">
        <ele>1849</ele>
      </trkpt>
      <trkpt lat="44.07608" lon="7.72107">
        <ele>1843.2</ele>
        <time>2020-08-01T12:20:15Z</time>
      </trkpt>
      <trkpt lat="44.07567" lon="7.72144">
        <ele>1840</ele>
      </trkpt>
      <trkpt lat="44.07555" lon="7.72116">
        <ele>1844</ele>
      </trkpt>
      <trkpt lat="44.07568" lon="7.721">
        <ele>1847</ele>
      </trkpt>
      <trkpt lat="44.07582" lon="7.72066">
        <ele>1858.9</ele>
        <time>2020-08-01T12:21:15Z</time>
      </trkpt>
      <trkpt lat="44.07623" lon="7.72023">
        <ele>1861</ele>
      </trkpt>
      <trkpt lat="44.07672" lon="7.72001">
        <ele>1863</ele>
      </trkpt>
      <trkpt lat="44.07656" lon="7.71985">
        <ele>1872.6</ele>
        <time>2020-08-01T12:22:14Z</time>
      </trkpt>
      <trkpt lat="44.07574" lon="7.7198">
        <ele>1881</ele>
      </trkpt>
      <trkpt lat="44.07528" lon="7.71997">
        <ele>1884.2</ele>
      </trkpt>
      <trkpt lat="44.07554" lon="7.71945">
        <ele>1888</ele>
      </trkpt>
      <trkpt lat="44.07589" lon="7.71917">
        <ele>1889.6</ele>
        <time>2020-08-01T12:24:13Z</time>
      </trkpt>
      <trkpt lat="44.07665" lon="7.7187">
        <ele>1902.6</ele>
        <time>2020-08-01T12:25:12Z</time>
      </trkpt>
      <trkpt lat="44.07559" lon="7.71829">
        <ele>1921.3</ele>
        <time>2020-08-01T12:26:11Z</time>
      </trkpt>
      <trkpt lat="44.0747" lon="7.71873">
        <ele>1918.8</ele>
        <time>2020-08-01T12:27:11Z</time>
      </trkpt>
      <trkpt lat="44.07435" lon="7.71897">
        <ele>1917.6</ele>
        <time>2020-08-01T12:28:11Z</time>
      </trkpt>
      <trkpt lat="44.07416" lon="7.71896">
        <ele>1922</ele>
      </trkpt>
      <trkpt lat="44.07428" lon="7.71881">
        <ele>1920.5</ele>
        <time>2020-08-01T12:31:09Z</time>
      </trkpt>
      <trkpt lat="44.07457" lon="7.71842">
        <ele>1924</ele>
      </trkpt>
      <trkpt lat="44.0745" lon="7.71827">
        <ele>1940.7</ele>
        <time>2020-08-01T12:32:09Z</time>
      </trkpt>
      <trkpt lat="44.074" lon="7.71859">
        <ele>1930.9</ele>
        <time>2020-08-01T12:33:08Z</time>
      </trkpt>
      <trkpt lat="44.07396" lon="7.71849">
        <ele>1933</ele>
      </trkpt>
      <trkpt lat="44.07411" lon="7.71839">
        <ele>1937.4</ele>
        <time>2020-08-01T12:34:08Z</time>
      </trkpt>
      <trkpt lat="44.07428" lon="7.71802">
        <ele>1945</ele>
      </trkpt>
      <trkpt lat="44.07456" lon="7.71779">
        <ele>1945.8</ele>
        <time>2020-08-01T12:35:07Z</time>
      </trkpt>
      <trkpt lat="44.07498" lon="7.71727">
        <ele>1960.2</ele>
        <time>2020-08-01T12:36:07Z</time>
      </trkpt>
      <trkpt lat="44.07527" lon="7.71715">
        <ele>1956</ele>
      </trkpt>
      <trkpt lat="44.07525" lon="7.71692">
        <ele>1960.4</ele>
      </trkpt>
      <trkpt lat="44.07483" lon="7.71705">
        <ele>1966.5</ele>
        <time>2020-08-01T12:38:06Z</time>
      </trkpt>
      <trkpt lat="44.07459" lon="7.71716">
        <ele>1966.9</ele>
        <time>2020-08-01T12:39:06Z</time>
      </trkpt>
      <trkpt lat="44.07441" lon="7.71723">
        <ele>1967.2</ele>
        <time>2020-08-01T12:41:05Z</time>
      </trkpt>
      <trkpt lat="44.07433" lon="7.71711">
        <ele>1969.5</ele>
        <time>2020-08-01T12:42:05Z</time>
      </trkpt>
      <trkpt lat="44.07424" lon="7.71728">
        <ele>1966.8</ele>
        <time>2020-08-01T12:44:04Z</time>
      </trkpt>
      <trkpt lat="44.0743" lon="7.71712">
        <ele>1969.6</ele>
        <time>2020-08-01T12:47:22Z</time>
      </trkpt>
      <trkpt lat="44.07458" lon="7.71687">
        <ele>1971.1</ele>
        <time>2020-08-01T12:48:21Z</time>
      </trkpt>
      <trkpt lat="44.07483" lon="7.7164">
        <ele>1988</ele>
      </trkpt>
      <trkpt lat="44.07534" lon="7.71633">
        <ele>1986.9</ele>
        <time>2020-08-01T12:49:21Z</time>
      </trkpt>
      <trkpt lat="44.07537" lon="7.71614">
        <ele>1991</ele>
      </trkpt>
      <trkpt lat="44.07489" lon="7.71621">
        <ele>1991.9</ele>
        <time>2020-08-01T12:50:20Z</time>
      </trkpt>
      <trkpt lat="44.07443" lon="7.71633">
        <ele>1992.9</ele>
        <time>2020-08-01T12:51:20Z</time>
      </trkpt>
      <trkpt lat="44.07411" lon="7.71651">
        <ele>1997.1</ele>
        <time>2020-08-01T12:52:19Z</time>
      </trkpt>
      <trkpt lat="44.0736" lon="7.71678">
        <ele>1987.8</ele>
      </trkpt>
      <trkpt lat="44.07364" lon="7.71654">
        <ele>2004</ele>
      </trkpt>
      <trkpt lat="44.07392" lon="7.71633">
        <ele>2004.2</ele>
        <time>2020-08-01T12:54:17Z</time>
      </trkpt>
      <trkpt lat="44.07437" lon="7.71591">
        <ele>2000.5</ele>
        <time>2020-08-01T12:55:17Z</time>
      </trkpt>
      <trkpt lat="44.07485" lon="7.71557">
        <ele>2013.5</ele>
        <time>2020-08-01T12:56:17Z</time>
      </trkpt>
      <trkpt lat="44.07544" lon="7.71555">
        <ele>2017.6</ele>
        <time>2020-08-01T12:57:17Z</time>
      </trkpt>
      <trkpt lat="44.07567" lon="7.71553">
        <ele>2019</ele>
      </trkpt>
      <trkpt lat="44.07587" lon="7.71559">
        <ele>2023</ele>
        <time>2020-08-01T12:58:18Z</time>
      </trkpt>
      <trkpt lat="44.07649" lon="7.71568">
        <ele>2027.3</ele>
        <time>2020-08-01T12:59:21Z</time>
      </trkpt>
      <trkpt lat="44.07707" lon="7.7158">
        <ele>2032.3</ele>
        <time>2020-08-01T13:00:22Z</time>
      </trkpt>
      <trkpt lat="44.07768" lon="7.71575">
        <ele>2031.4</ele>
        <time>2020-08-01T13:01:23Z</time>
      </trkpt>
      <trkpt lat="44.0782" lon="7.71566">
        <ele>2029.8</ele>
        <time>2020-08-01T13:02:22Z</time>
      </trkpt>
      <trkpt lat="44.07835" lon="7.71559">
        <ele>2027.1</ele>
        <time>2020-08-01T13:03:28Z</time>
      </trkpt>
      <trkpt lat="44.07867" lon="7.71536">
        <ele>2028.8</ele>
        <time>2020-08-01T13:04:27Z</time>
      </trkpt>
      <trkpt lat="44.07928" lon="7.71504">
        <ele>2030.9</ele>
        <time>2020-08-01T13:05:27Z</time>
      </trkpt>
      <trkpt lat="44.07982" lon="7.71478">
        <ele>2030.5</ele>
        <time>2020-08-01T13:20:36Z</time>
      </trkpt>
      <trkpt lat="44.0801" lon="7.71455">
        <ele>2038</ele>
      </trkpt>
      <trkpt lat="44.07905" lon="7.71476">
        <ele>2024</ele>
      </trkpt>
      <trkpt lat="44.07914" lon="7.71464">
        <ele>2021</ele>
      </trkpt>
      <trkpt lat="44.0797" lon="7.71444">
        <ele>2024.5</ele>
        <time>2020-08-01T13:22:21Z</time>
      </trkpt>
      <trkpt lat="44.07862" lon="7.71441">
        <ele>2017</ele>
      </trkpt>
      <trkpt lat="44.07795" lon="7.71413">
        <ele>2003</ele>
      </trkpt>
      <trkpt lat="44.07755" lon="7.71371">
        <ele>1999</ele>
      </trkpt>
      <trkpt lat="44.07702" lon="7.7125">
        <ele>1980.7</ele>
        <time>2020-08-01T13:25:29Z</time>
      </trkpt>
      <trkpt lat="44.07611" lon="7.71021">
        <ele>1958</ele>
      </trkpt>
      <trkpt lat="44.07556" lon="7.70938">
        <ele>1943.4</ele>
        <time>2020-08-01T13:26:29Z</time>
      </trkpt>
      <trkpt lat="44.07534" lon="7.70934">
        <ele>1940</ele>
      </trkpt>
      <trkpt lat="44.07474" lon="7.71012">
        <ele>1957</ele>
      </trkpt>
      <trkpt lat="44.07448" lon="7.71021">
        <ele>1954</ele>
      </trkpt>
      <trkpt lat="44.07406" lon="7.71002">
        <ele>1928</ele>
      </trkpt>
      <trkpt lat="44.07385" lon="7.71026">
        <ele>1930.8</ele>
      </trkpt>
      <trkpt lat="44.07371" lon="7.71058">
        <ele>1936</ele>
      </trkpt>
      <trkpt lat="44.07328" lon="7.71072">
        <ele>1929</ele>
      </trkpt>
      <trkpt lat="44.07285" lon="7.71039">
        <ele>1909</ele>
      </trkpt>
      <trkpt lat="44.07246" lon="7.7103">
        <ele>1891</ele>
      </trkpt>
      <trkpt lat="44.07213" lon="7.71072">
        <ele>1899.6</ele>
        <time>2020-08-01T13:28:28Z</time>
      </trkpt>
      <trkpt lat="44.07186" lon="7.71098">
        <ele>1925</ele>
      </trkpt>
      <trkpt lat="44.07151" lon="7.71084">
        <ele>1908</ele>
      </trkpt>
      <trkpt lat="44.07126" lon="7.71072">
        <ele>1878</ele>
      </trkpt>
      <trkpt lat="44.07103" lon="7.71077">
        <ele>1878</ele>
      </trkpt>
      <trkpt lat="44.07087" lon="7.71092">
        <ele>1894.7</ele>
        <time>2020-08-01T13:29:27Z</time>
      </trkpt>
      <trkpt lat="44.07065" lon="7.71115">
        <ele>1898</ele>
      </trkpt>
      <trkpt lat="44.07035" lon="7.71114">
        <ele>1895</ele>
      </trkpt>
      <trkpt lat="44.06999" lon="7.71105">
        <ele>1889</ele>
      </trkpt>
      <trkpt lat="44.06981" lon="7.71119">
        <ele>1898.7</ele>
        <time>2020-08-01T13:30:59Z</time>
      </trkpt>
      <trkpt lat="44.06953" lon="7.71093">
        <ele>1898</ele>
      </trkpt>
      <trkpt lat="44.06933" lon="7.71046">
        <ele>1870</ele>
      </trkpt>
      <trkpt lat="44.06892" lon="7.70951">
        <ele>1859.5</ele>
        <time>2020-08-01T13:31:58Z</time>
      </trkpt>
      <trkpt lat="44.06857" lon="7.70943">
        <ele>1866</ele>
      </trkpt>
      <trkpt lat="44.06853" lon="7.70921">
        <ele>1865.1</ele>
        <time>2020-08-01T13:32:53Z</time>
      </trkpt>
      <trkpt lat="44.06843" lon="7.70836">
        <ele>1844</ele>
      </trkpt>
      <trkpt lat="44.06834" lon="7.70795">
        <ele>1819</ele>
      </trkpt>
      <trkpt lat="44.06824" lon="7.70753">
        <ele>1820.6</ele>
      </trkpt>
      <trkpt lat="44.068" lon="7.7077">
        <ele>1827</ele>
      </trkpt>
      <trkpt lat="44.06779" lon="7.70786">
        <ele>1829</ele>
      </trkpt>
      <trkpt lat="44.06757" lon="7.70777">
        <ele>1825</ele>
      </trkpt>
      <trkpt lat="44.06723" lon="7.708">
        <ele>1819</ele>
      </trkpt>
      <trkpt lat="44.06701" lon="7.70833">
        <ele>1821</ele>
      </trkpt>
      <trkpt lat="44.06675" lon="7.70826">
        <ele>1819</ele>
      </trkpt>
      <trkpt lat="44.06658" lon="7.70856">
        <ele>1842</ele>
      </trkpt>
      <trkpt lat="44.06635" lon="7.70866">
        <ele>1850.1</ele>
      </trkpt>
      <trkpt lat="44.06594" lon="7.70815">
        <ele>1822</ele>
      </trkpt>
      <trkpt lat="44.06579" lon="7.7076">
        <ele>1819.4</ele>
        <time>2020-08-01T13:35:12Z</time>
      </trkpt>
      <trkpt lat="44.06554" lon="7.70697">
        <ele>1795</ele>
      </trkpt>
      <trkpt lat="44.0652" lon="7.70693">
        <ele>1798</ele>
      </trkpt>
      <trkpt lat="44.06485" lon="7.70697">
        <ele>1819</ele>
      </trkpt>
      <trkpt lat="44.06475" lon="7.70667">
        <ele>1812</ele>
      </trkpt>
      <trkpt lat="44.06451" lon="7.70648">
        <ele>1799</ele>
      </trkpt>
      <trkpt lat="44.06442" lon="7.70612">
        <ele>1796</ele>
      </trkpt>
      <trkpt lat="44.06437" lon="7.70578">
        <ele>1787</ele>
      </trkpt>
      <trkpt lat="44.06462" lon="7.70545">
        <ele>1773.3</ele>
        <time>2020-08-01T13:36:34Z</time>
      </trkpt>
      <trkpt lat="44.06456" lon="7.70493">
        <ele>1759</ele>
      </trkpt>
      <trkpt lat="44.06435" lon="7.70441">
        <ele>1754.4</ele>
      </trkpt>
      <trkpt lat="44.0648" lon="7.70505">
        <ele>1762</ele>
      </trkpt>
      <trkpt lat="44.06448" lon="7.70425">
        <ele>1751</ele>
      </trkpt>
      <trkpt lat="44.06442" lon="7.70411">
        <ele>1733</ele>
      </trkpt>
      <trkpt lat="44.06432" lon="7.70406">
        <ele>1736</ele>
      </trkpt>
      <trkpt lat="44.06386" lon="7.70412">
        <ele>1727.6</ele>
        <time>2020-08-01T13:38:39Z</time>
      </trkpt>
      <trkpt lat="44.06346" lon="7.70468">
        <ele>1757.1</ele>
      </trkpt>
      <trkpt lat="44.06322" lon="7.70491">
        <ele>1759.3</ele>
      </trkpt>
      <trkpt lat="44.06302" lon="7.70451">
        <ele>1747</ele>
      </trkpt>
      <trkpt lat="44.06279" lon="7.70436">
        <ele>1743</ele>
      </trkpt>
      <trkpt lat="44.06203" lon="7.70439">
        <ele>1752</ele>
      </trkpt>
      <trkpt lat="44.06183" lon="7.7042">
        <ele>1744</ele>
      </trkpt>
      <trkpt lat="44.06144" lon="7.70423">
        <ele>1752.7</ele>
      </trkpt>
      <trkpt lat="44.06099" lon="7.70404">
        <ele>1727</ele>
      </trkpt>
      <trkpt lat="44.0608" lon="7.70366">
        <ele>1722</ele>
      </trkpt>
      <trkpt lat="44.06055" lon="7.70348">
        <ele>1720</ele>
      </trkpt>
      <trkpt lat="44.06029" lon="7.70364">
        <ele>1725</ele>
      </trkpt>
      <trkpt lat="44.05985" lon="7.70355">
        <ele>1722</ele>
      </trkpt>
      <trkpt lat="44.0595" lon="7.70341">
        <ele>1720</ele>
      </trkpt>
      <trkpt lat="44.05917" lon="7.70315">
        <ele>1702</ele>
      </trkpt>
      <trkpt lat="44.05906" lon="7.7038">
        <ele>1706.8</ele>
        <time>2020-08-01T13:43:02Z</time>
      </trkpt>
      <trkpt lat="44.05895" lon="7.70444">
        <ele>1725</ele>
      </trkpt>
      <trkpt lat="44.0586" lon="7.705">
        <ele>1731</ele>
      </trkpt>
      <trkpt lat="44.05785" lon="7.7049">
        <ele>1705</ele>
      </trkpt>
      <trkpt lat="44.05721" lon="7.70491">
        <ele>1696</ele>
      </trkpt>
      <trkpt lat="44.05649" lon="7.70542">
        <ele>1718</ele>
      </trkpt>
      <trkpt lat="44.05596" lon="7.70512">
        <ele>1714</ele>
      </trkpt>
      <trkpt lat="44.05535" lon="7.70409">
        <ele>1683.5</ele>
        <time>2020-08-01T13:45:13Z</time>
      </trkpt>
      <trkpt lat="44.05517" lon="7.70361">
        <ele>1678</ele>
      </trkpt>
      <trkpt lat="44.05484" lon="7.70327">
        <ele>1662</ele>
      </trkpt>
      <trkpt lat="44.05416" lon="7.70437">
        <ele>1673</ele>
      </trkpt>
      <trkpt lat="44.0538" lon="7.70455">
        <ele>1671</ele>
      </trkpt>
      <trkpt lat="44.0533" lon="7.70448">
        <ele>1655.6</ele>
      </trkpt>
      <trkpt lat="44.05196" lon="7.7034">
        <ele>1644.3</ele>
      </trkpt>
      <trkpt lat="44.05178" lon="7.70287">
        <ele>1637</ele>
      </trkpt>
      <trkpt lat="44.0516" lon="7.70282">
        <ele>1633</ele>
      </trkpt>
      <trkpt lat="44.05093" lon="7.70334">
        <ele>1626</ele>
      </trkpt>
      <trkpt lat="44.05178" lon="7.70204">
        <ele>1618</ele>
      </trkpt>
      <trkpt lat="44.05158" lon="7.70202">
        <ele>1615</ele>
      </trkpt>
      <trkpt lat="44.05151" lon="7.7023">
        <ele>1620</ele>
      </trkpt>
      <trkpt lat="44.05121" lon="7.70266">
        <ele>1627</ele>
      </trkpt>
      <trkpt lat="44.05036" lon="7.70304">
        <ele>1607.4</ele>
        <time>2020-08-01T13:58:22Z</time>
      </trkpt>
      <trkpt lat="44.04973" lon="7.70282">
        <ele>1593</ele>
      </trkpt>
      <trkpt lat="44.0491" lon="7.70235">
        <ele>1588</ele>
      </trkpt>
      <trkpt lat="44.0477" lon="7.70288">
        <ele>1595.7</ele>
        <time>2020-08-01T13:59:29Z</time>
      </trkpt>
      <trkpt lat="44.04698" lon="7.7028">
        <ele>1605.4</ele>
        <time>2020-08-01T14:00:55Z</time>
      </trkpt>
      <trkpt lat="44.04644" lon="7.70277">
        <ele>1615.1</ele>
        <time>2020-08-01T14:01:59Z</time>
      </trkpt>
      <trkpt lat="44.04622" lon="7.70289">
        <ele>1617</ele>
      </trkpt>
      <trkpt lat="44.04571" lon="7.70253">
        <ele>1634.2</ele>
      </trkpt>
      <trkpt lat="44.04514" lon="7.70171">
        <ele>1646</ele>
      </trkpt>
      <trkpt lat="44.04497" lon="7.70052">
        <ele>1655</ele>
      </trkpt>
      <trkpt lat="44.04423" lon="7.69956">
        <ele>1654.3</ele>
        <time>2020-08-01T14:05:08Z</time>
      </trkpt>
      <trkpt lat="44.04376" lon="7.69898">
        <ele>1659.6</ele>
        <time>2020-08-01T14:06:08Z</time>
      </trkpt>
      <trkpt lat="44.04299" lon="7.69896">
        <ele>1677.4</ele>
        <time>2020-08-01T14:07:07Z</time>
      </trkpt>
      <trkpt lat="44.04263" lon="7.69874">
        <ele>1677.8</ele>
        <time>2020-08-01T14:08:07Z</time>
      </trkpt>
      <trkpt lat="44.04218" lon="7.69881">
        <ele>1701</ele>
      </trkpt>
      <trkpt lat="44.04191" lon="7.69785">
        <ele>1688</ele>
        <time>2020-08-01T14:09:06Z</time>
      </trkpt>
      <trkpt lat="44.04171" lon="7.69768">
        <ele>1693</ele>
      </trkpt>
      <trkpt lat="44.04174" lon="7.69674">
        <ele>1684</ele>
      </trkpt>
      <trkpt lat="44.04105" lon="7.69564">
        <ele>1706.2</ele>
        <time>2020-08-01T14:11:05Z</time>
      </trkpt>
      <trkpt lat="44.04125" lon="7.69452">
        <ele>1705.5</ele>
        <time>2020-08-01T14:12:08Z</time>
      </trkpt>
      <trkpt lat="44.04154" lon="7.69392">
        <ele>1704</ele>
      </trkpt>
      <trkpt lat="44.04143" lon="7.69294">
        <ele>1712.3</ele>
        <time>2020-08-01T14:13:08Z</time>
      </trkpt>
      <trkpt lat="44.04116" lon="7.69233">
        <ele>1722</ele>
      </trkpt>
      <trkpt lat="44.04147" lon="7.69147">
        <ele>1714.4</ele>
        <time>2020-08-01T14:14:07Z</time>
      </trkpt>
      <trkpt lat="44.04166" lon="7.69076">
        <ele>1715</ele>
      </trkpt>
      <trkpt lat="44.04168" lon="7.69004">
        <ele>1710.3</ele>
        <time>2020-08-01T14:15:06Z</time>
      </trkpt>
      <trkpt lat="44.04176" lon="7.6893">
        <ele>1697</ele>
        <time>2020-08-01T14:16:06Z</time>
      </trkpt>
      <trkpt lat="44.04168" lon="7.6893">
        <ele>1697.8</ele>
        <time>2020-08-01T14:17:03Z</time>
      </trkpt>
      <trkpt lat="44.04066" lon="7.68972">
        <ele>1722</ele>
      </trkpt>
      <trkpt lat="44.03976" lon="7.68911">
        <ele>1705</ele>
      </trkpt>
      <trkpt lat="44.03847" lon="7.68661">
        <ele>1697.3</ele>
      </trkpt>
      <trkpt lat="44.03788" lon="7.6845">
        <ele>1684</ele>
      </trkpt>
      <trkpt lat="44.03707" lon="7.68386">
        <ele>1673.4</ele>
        <time>2020-08-01T14:19:17Z</time>
      </trkpt>
      <trkpt lat="44.03634" lon="7.68295">
        <ele>1676</ele>
      </trkpt>
      <trkpt lat="44.03556" lon="7.68252">
        <ele>1670.8</ele>
      </trkpt>
      <trkpt lat="44.03541" lon="7.68205">
        <ele>1682</ele>
      </trkpt>
      <trkpt lat="44.03525" lon="7.68158">
        <ele>1689.7</ele>
      </trkpt>
      <trkpt lat="44.03447" lon="7.68037">
        <ele>1687.9</ele>
        <time>2020-08-01T14:22:16Z</time>
      </trkpt>
      <trkpt lat="44.03384" lon="7.67969">
        <ele>1680.9</ele>
      </trkpt>
      <trkpt lat="44.03383" lon="7.67906">
        <ele>1686.3</ele>
        <time>2020-08-01T14:23:26Z</time>
      </trkpt>
      <trkpt lat="44.03367" lon="7.67852">
        <ele>1686.9</ele>
        <time>2020-08-01T14:24:26Z</time>
      </trkpt>
      <trkpt lat="44.03337" lon="7.67815">
        <ele>1691.2</ele>
        <time>2020-08-01T14:26:07Z</time>
      </trkpt>
      <trkpt lat="44.03273" lon="7.6775">
        <ele>1696</ele>
      </trkpt>
      <trkpt lat="44.03228" lon="7.67631">
        <ele>1706.5</ele>
        <time>2020-08-01T14:28:45Z</time>
      </trkpt>
      <trkpt lat="44.03233" lon="7.67558">
        <ele>1712</ele>
      </trkpt>
      <trkpt lat="44.03186" lon="7.67464">
        <ele>1707</ele>
      </trkpt>
      <trkpt lat="44.03119" lon="7.67316">
        <ele>1717</ele>
      </trkpt>
      <trkpt lat="44.0314" lon="7.6728">
        <ele>1712.7</ele>
        <time>2020-08-01T14:37:32Z</time>
      </trkpt>
      <trkpt lat="44.03175" lon="7.6725">
        <ele>1694</ele>
      </trkpt>
      <trkpt lat="44.03224" lon="7.6715">
        <ele>1693</ele>
      </trkpt>
      <trkpt lat="44.03243" lon="7.67075">
        <ele>1695.7</ele>
      </trkpt>
      <trkpt lat="44.03279" lon="7.67033">
        <ele>1694</ele>
      </trkpt>
      <trkpt lat="44.03369" lon="7.67121">
        <ele>1661</ele>
      </trkpt>
      <trkpt lat="44.03617" lon="7.67024">
        <ele>1649.5</ele>
        <time>2020-08-01T14:41:50Z</time>
      </trkpt>
      <trkpt lat="44.03627" lon="7.66915">
        <ele>1665</ele>
      </trkpt>
      <trkpt lat="44.03668" lon="7.66798">
        <ele>1659</ele>
      </trkpt>
      <trkpt lat="44.03736" lon="7.66835">
        <ele>1639</ele>
      </trkpt>
      <trkpt lat="44.03855" lon="7.66781">
        <ele>1648</ele>
      </trkpt>
      <trkpt lat="44.0393" lon="7.66814">
        <ele>1639.2</ele>
        <time>2020-08-01T14:43:22Z</time>
      </trkpt>
      <trkpt lat="44.03974" lon="7.66803">
        <ele>1646</ele>
      </trkpt>
      <trkpt lat="44.04123" lon="7.66895">
        <ele>1619</ele>
        <time>2020-08-01T14:44:21Z</time>
      </trkpt>
      <trkpt lat="44.04162" lon="7.66889">
        <ele>1617</ele>
      </trkpt>
      <trkpt lat="44.04097" lon="7.66788">
        <ele>1622</ele>
      </trkpt>
      <trkpt lat="44.0407" lon="7.66619">
        <ele>1636.7</ele>
      </trkpt>
      <trkpt lat="44.0412" lon="7.66488">
        <ele>1581</ele>
      </trkpt>
      <trkpt lat="44.04089" lon="7.66408">
        <ele>1588</ele>
      </trkpt>
      <trkpt lat="44.04092" lon="7.66319">
        <ele>1578</ele>
      </trkpt>
      <trkpt lat="44.04189" lon="7.66103">
        <ele>1562</ele>
      </trkpt>
      <trkpt lat="44.04424" lon="7.65803">
        <ele>1532.3</ele>
      </trkpt>
      <trkpt lat="44.04601" lon="7.65745">
        <ele>1525</ele>
      </trkpt>
      <trkpt lat="44.04662" lon="7.65719">
        <ele>1519</ele>
      </trkpt>
      <trkpt lat="44.04707" lon="7.65665">
        <ele>1517</ele>
      </trkpt>
      <trkpt lat="44.04735" lon="7.65609">
        <ele>1521</ele>
      </trkpt>
      <trkpt lat="44.04783" lon="7.65622">
        <ele>1496</ele>
      </trkpt>
      <trkpt lat="44.04873" lon="7.65538">
        <ele>1496</ele>
      </trkpt>
      <trkpt lat="44.04944" lon="7.65538">
        <ele>1472.8</ele>
        <time>2020-08-01T14:49:54Z</time>
      </trkpt>
      <trkpt lat="44.04984" lon="7.65493">
        <ele>1472</ele>
      </trkpt>
      <trkpt lat="44.05004" lon="7.65372">
        <ele>1455</ele>
      </trkpt>
      <trkpt lat="44.05032" lon="7.65318">
        <ele>1458</ele>
      </trkpt>
      <trkpt lat="44.05115" lon="7.65257">
        <ele>1439</ele>
      </trkpt>
      <trkpt lat="44.05159" lon="7.65246">
        <ele>1437</ele>
        <time>2020-08-01T14:51:15Z</time>
      </trkpt>
      <trkpt lat="44.05196" lon="7.652">
        <ele>1429.1</ele>
        <time>2020-08-01T14:52:15Z</time>
      </trkpt>
      <trkpt lat="44.05334" lon="7.65116">
        <ele>1423</ele>
      </trkpt>
      <trkpt lat="44.05392" lon="7.65049">
        <ele>1428.7</ele>
        <time>2020-08-01T14:54:14Z</time>
      </trkpt>
      <trkpt lat="44.05414" lon="7.6497">
        <ele>1426</ele>
      </trkpt>
      <trkpt lat="44.05421" lon="7.64893">
        <ele>1443</ele>
      </trkpt>
      <trkpt lat="44.05416" lon="7.64841">
        <ele>1428.9</ele>
        <time>2020-08-01T14:55:22Z</time>
      </trkpt>
      <trkpt lat="44.05395" lon="7.64771">
        <ele>1418</ele>
      </trkpt>
      <trkpt lat="44.05461" lon="7.64684">
        <ele>1431</ele>
      </trkpt>
      <trkpt lat="44.05485" lon="7.64604">
        <ele>1418</ele>
      </trkpt>
      <trkpt lat="44.05504" lon="7.64525">
        <ele>1418</ele>
      </trkpt>
      <trkpt lat="44.05497" lon="7.64426">
        <ele>1412</ele>
      </trkpt>
      <trkpt lat="44.05478" lon="7.64327">
        <ele>1404.1</ele>
      </trkpt>
      <trkpt lat="44.05485" lon="7.6424">
        <ele>1398</ele>
      </trkpt>
      <trkpt lat="44.05518" lon="7.64144">
        <ele>1390</ele>
      </trkpt>
      <trkpt lat="44.05479" lon="7.64179">
        <ele>1391</ele>
      </trkpt>
      <trkpt lat="44.05459" lon="7.64213">
        <ele>1387</ele>
      </trkpt>
      <trkpt lat="44.05473" lon="7.64014">
        <ele>1360.9</ele>
        <time>2020-08-01T14:58:23Z</time>
      </trkpt>
      <trkpt lat="44.05502" lon="7.63914">
        <ele>1354</ele>
      </trkpt>
      <trkpt lat="44.05479" lon="7.63929">
        <ele>1349</ele>
      </trkpt>
      <trkpt lat="44.05435" lon="7.64013">
        <ele>1349</ele>
      </trkpt>
      <trkpt lat="44.05478" lon="7.63825">
        <ele>1329.3</ele>
      </trkpt>
      <trkpt lat="44.0547" lon="7.63757">
        <ele>1322</ele>
      </trkpt>
      <trkpt lat="44.05448" lon="7.63678">
        <ele>1314</ele>
      </trkpt>
      <trkpt lat="44.05439" lon="7.63765">
        <ele>1318</ele>
      </trkpt>
      <trkpt lat="44.05413" lon="7.63806">
        <ele>1300</ele>
      </trkpt>
      <trkpt lat="44.05384" lon="7.63882">
        <ele>1298</ele>
      </trkpt>
      <trkpt lat="44.0539" lon="7.63785">
        <ele>1295</ele>
      </trkpt>
      <trkpt lat="44.05351" lon="7.63715">
        <ele>1288</ele>
      </trkpt>
      <trkpt lat="44.05348" lon="7.63636">
        <ele>1284</ele>
      </trkpt>
      <trkpt lat="44.05368" lon="7.63525">
        <ele>1276</ele>
      </trkpt>
      <trkpt lat="44.05343" lon="7.63369">
        <ele>1264.8</ele>
        <time>2020-08-01T15:01:08Z</time>
      </trkpt>
      <trkpt lat="44.05335" lon="7.63318">
        <ele>1258</ele>
      </trkpt>
      <trkpt lat="44.05271" lon="7.63257">
        <ele>1236</ele>
      </trkpt>
      <trkpt lat="44.05098" lon="7.63258">
        <ele>1225.3</ele>
      </trkpt>
      <trkpt lat="44.05402" lon="7.63137">
        <ele>1209.4</ele>
        <time>2020-08-01T15:03:08Z</time>
      </trkpt>
      <trkpt lat="44.055" lon="7.63049">
        <ele>1198</ele>
      </trkpt>
      <trkpt lat="44.05547" lon="7.63">
        <ele>1193</ele>
      </trkpt>
      <trkpt lat="44.05592" lon="7.62997">
        <ele>1184</ele>
      </trkpt>
      <trkpt lat="44.05685" lon="7.63378">
        <ele>1193.7</ele>
        <time>2020-08-01T15:04:29Z</time>
      </trkpt>
      <trkpt lat="44.05742" lon="7.6372">
        <ele>1211</ele>
      </trkpt>
      <trkpt lat="44.05773" lon="7.63778">
        <ele>1193.2</ele>
        <time>2020-08-01T15:05:43Z</time>
      </trkpt>
      <trkpt lat="44.0583" lon="7.63797">
        <ele>1187</ele>
      </trkpt>
      <trkpt lat="44.05912" lon="7.63884">
        <ele>1179</ele>
      </trkpt>
      <trkpt lat="44.05927" lon="7.63964">
        <ele>1176</ele>
      </trkpt>
      <trkpt lat="44.05989" lon="7.64025">
        <ele>1177</ele>
      </trkpt>
      <trkpt lat="44.0601" lon="7.6414">
        <ele>1166.6</ele>
        <time>2020-08-01T15:07:13Z</time>
      </trkpt>
      <trkpt lat="44.06066" lon="7.64229">
        <ele>1165</ele>
      </trkpt>
      <trkpt lat="44.06127" lon="7.64271">
        <ele>1139</ele>
      </trkpt>
      <trkpt lat="44.0613" lon="7.64389">
        <ele>1135</ele>
      </trkpt>
      <trkpt lat="44.06096" lon="7.64513">
        <ele>1126.2</ele>
        <time>2020-08-01T15:08:15Z</time>
      </trkpt>
      <trkpt lat="44.06029" lon="7.64677">
        <ele>1124</ele>
      </trkpt>
      <trkpt lat="44.05991" lon="7.64829">
        <ele>1121</ele>
      </trkpt>
      <trkpt lat="44.06059" lon="7.64693">
        <ele>1111</ele>
      </trkpt>
      <trkpt lat="44.061" lon="7.64698">
        <ele>1082.4</ele>
        <time>2020-08-01T15:09:25Z</time>
      </trkpt>
      <trkpt lat="44.06214" lon="7.64583">
        <ele>1078</ele>
      </trkpt>
      <trkpt lat="44.06284" lon="7.64377">
        <ele>1058.5</ele>
        <time>2020-08-01T15:10:24Z</time>
      </trkpt>
      <trkpt lat="44.06334" lon="7.64231">
        <ele>1038</ele>
      </trkpt>
      <trkpt lat="44.06403" lon="7.64077">
        <ele>1019</ele>
      </trkpt>
      <trkpt lat="44.06411" lon="7.64095">
        <ele>1027.9</ele>
        <time>2020-08-01T15:11:25Z</time>
      </trkpt>
      <trkpt lat="44.06361" lon="7.64217">
        <ele>1033</ele>
      </trkpt>
      <trkpt lat="44.06341" lon="7.64337">
        <ele>1027.1</ele>
        <time>2020-08-01T15:12:30Z</time>
      </trkpt>
      <trkpt lat="44.0637" lon="7.64464">
        <ele>1018</ele>
      </trkpt>
      <trkpt lat="44.06426" lon="7.64531">
        <ele>989.1</ele>
        <time>2020-08-01T15:13:30Z</time>
      </trkpt>
      <trkpt lat="44.06433" lon="7.64585">
        <ele>993</ele>
      </trkpt>
      <trkpt lat="44.0642" lon="7.64667">
        <ele>996</ele>
      </trkpt>
      <trkpt lat="44.06435" lon="7.64755">
        <ele>973.8</ele>
        <time>2020-08-01T15:19:52Z</time>
      </trkpt>
      <trkpt lat="44.0639" lon="7.6479">
        <ele>982</ele>
      </trkpt>
      <trkpt lat="44.06318" lon="7.64797">
        <ele>997</ele>
      </trkpt>
      <trkpt lat="44.06291" lon="7.64886">
        <ele>972</ele>
      </trkpt>
      <trkpt lat="44.06251" lon="7.64972">
        <ele>948.8</ele>
      </trkpt>
      <trkpt lat="44.06183" lon="7.64994">
        <ele>975</ele>
      </trkpt>
      <trkpt lat="44.06182" lon="7.65113">
        <ele>955</ele>
      </trkpt>
      <trkpt lat="44.06228" lon="7.65181">
        <ele>937</ele>
      </trkpt>
      <trkpt lat="44.0617" lon="7.65284">
        <ele>931.1</ele>
        <time>2020-08-01T15:21:55Z</time>
      </trkpt>
      <trkpt lat="44.06153" lon="7.65379">
        <ele>934</ele>
      </trkpt>
      <trkpt lat="44.06102" lon="7.65425">
        <ele>939</ele>
      </trkpt>
      <trkpt lat="44.06124" lon="7.65566">
        <ele>916</ele>
      </trkpt>
      <trkpt lat="44.06087" lon="7.65626">
        <ele>918.4</ele>
        <time>2020-08-01T15:22:54Z</time>
      </trkpt>
      <trkpt lat="44.06073" lon="7.65759">
        <ele>934</ele>
      </trkpt>
      <trkpt lat="44.06114" lon="7.65859">
        <ele>922</ele>
      </trkpt>
      <trkpt lat="44.06129" lon="7.6596">
        <ele>926</ele>
      </trkpt>
      <trkpt lat="44.06138" lon="7.65932">
        <ele>924</ele>
      </trkpt>
      <trkpt lat="44.06132" lon="7.65852">
        <ele>919</ele>
      </trkpt>
      <trkpt lat="44.06095" lon="7.65731">
        <ele>916</ele>
      </trkpt>
      <trkpt lat="44.06117" lon="7.65663">
        <ele>913</ele>
      </trkpt>
      <trkpt lat="44.06152" lon="7.65611">
        <ele>905.6</ele>
        <time>2020-08-01T15:24:40Z</time>
      </trkpt>
      <trkpt lat="44.06199" lon="7.65517">
        <ele>894</ele>
      </trkpt>
      <trkpt lat="44.06256" lon="7.65433">
        <ele>885</ele>
      </trkpt>
      <trkpt lat="44.06298" lon="7.65397">
        <ele>882</ele>
      </trkpt>
      <trkpt lat="44.06375" lon="7.65356">
        <ele>870</ele>
      </trkpt>
      <trkpt lat="44.06426" lon="7.65302">
        <ele>868.2</ele>
        <time>2020-08-01T15:25:49Z</time>
      </trkpt>
      <trkpt lat="44.06431" lon="7.65233">
        <ele>870</ele>
      </trkpt>
      <trkpt lat="44.06392" lon="7.65151">
        <ele>868</ele>
      </trkpt>
      <trkpt lat="44.06537" lon="7.65052">
        <ele>867</ele>
      </trkpt>
      <trkpt lat="44.06625" lon="7.64937">
        <ele>858.1</ele>
        <time>2020-08-01T15:26:48Z</time>
      </trkpt>
      <trkpt lat="44.06733" lon="7.64841">
        <ele>860</ele>
      </trkpt>
      <trkpt lat="44.06717" lon="7.64749">
        <ele>852</ele>
      </trkpt>
      <trkpt lat="44.06713" lon="7.64635">
        <ele>847</ele>
      </trkpt>
      <trkpt lat="44.06808" lon="7.64522">
        <ele>848.7</ele>
        <time>2020-08-01T15:27:47Z</time>
      </trkpt>
      <trkpt lat="44.06845" lon="7.6428">
        <ele>842</ele>
      </trkpt>
      <trkpt lat="44.06876" lon="7.64176">
        <ele>830</ele>
      </trkpt>
      <trkpt lat="44.06919" lon="7.64145">
        <ele>828.2</ele>
        <time>2020-08-01T15:28:46Z</time>
      </trkpt>
      <trkpt lat="44.06963" lon="7.64116">
        <ele>828</ele>
      </trkpt>
      <trkpt lat="44.06985" lon="7.64059">
        <ele>825.8</ele>
        <time>2020-08-01T15:30:15Z</time>
      </trkpt>
      <trkpt lat="44.06913" lon="7.64">
        <ele>818</ele>
      </trkpt>
      <trkpt lat="44.06845" lon="7.6394">
        <ele>814</ele>
      </trkpt>
      <trkpt lat="44.06791" lon="7.63823">
        <ele>832</ele>
      </trkpt>
      <trkpt lat="44.06688" lon="7.63771">
        <ele>822.4</ele>
        <time>2020-08-01T15:32:25Z</time>
      </trkpt>
      <trkpt lat="44.06591" lon="7.63656">
        <ele>811</ele>
      </trkpt>
      <trkpt lat="44.06482" lon="7.63378">
        <ele>800</ele>
      </trkpt>
      <trkpt lat="44.0647" lon="7.63258">
        <ele>797.3</ele>
        <time>2020-08-01T15:33:26Z</time>
      </trkpt>
      <trkpt lat="44.0647" lon="7.63073">
        <ele>792</ele>
      </trkpt>
      <trkpt lat="44.06525" lon="7.62928">
        <ele>794</ele>
      </trkpt>
      <trkpt lat="44.06516" lon="7.62707">
        <ele>793.1</ele>
      </trkpt>
      <trkpt lat="44.0652" lon="7.62621">
        <ele>796</ele>
      </trkpt>
      <trkpt lat="44.0652" lon="7.62535">
        <ele>802.3</ele>
      </trkpt>
      <trkpt lat="44.065" lon="7.62382">
        <ele>790</ele>
      </trkpt>
      <trkpt lat="44.06464" lon="7.6227">
        <ele>793</ele>
        <time>2020-08-01T15:35:29Z</time>
      </trkpt>
      <trkpt lat="44.06398" lon="7.62106">
        <ele>787</ele>
      </trkpt>
      <trkpt lat="44.06395" lon="7.61996">
        <ele>786</ele>
      </trkpt>
      <trkpt lat="44.06372" lon="7.61983">
        <ele>781</ele>
      </trkpt>
      <trkpt lat="44.06332" lon="7.61988">
        <ele>774</ele>
      </trkpt>
      <trkpt lat="44.06329" lon="7.61945">
        <ele>773.3</ele>
        <time>2020-08-01T15:36:29Z</time>
      </trkpt>
      <trkpt lat="44.06312" lon="7.6179">
        <ele>773</ele>
      </trkpt>
      <trkpt lat="44.06341" lon="7.61626">
        <ele>775.6</ele>
      </trkpt>
    </trkseg>
  </trk>
</gpx>